<?xml version="1.0" encoding="UTF-8" standalone="no" ?>
<gpx xmlns="http://www.topografix.com/GPX/1/1" xmlns:xsi="http://www.w3.org/2001/XMLSchema-instance" xsi:schemaLocation="http://www.topografix.com/GPX/1/1 http://www.topografix.com/GPX/1/1/gpx.xsd" version="1.1" creator="VisuGPX - https://www.visugpx.com">
  <metadata>
    <name>20200628</name>
    <desc><![CDATA[Si Dieppe m'était conté revisité.]]></desc>
  </metadata>
  <trk>
    <name><![CDATA[20200628]]></name>
    <extensions>
      <line xmlns="http://www.topografix.com/GPX/gpx_style/0/2">
        <color>0000FF</color>
        <width>4</width>
      </line>
    </extensions>
    <trkseg>
      <trkpt lat="49.92625" lon="1.07006">
        <ele>-2.75</ele>
        <time>2020-06-18T11:32:02Z</time>
      </trkpt>
      <trkpt lat="49.92624" lon="1.07007">
        <ele>-2.75</ele>
        <time>2020-06-18T11:32:21Z</time>
      </trkpt>
      <trkpt lat="49.92625" lon="1.07007">
        <ele>-2.75</ele>
        <time>2020-06-18T11:32:37Z</time>
      </trkpt>
      <trkpt lat="49.92625" lon="1.07008">
        <ele>-2.75</ele>
        <time>2020-06-18T11:32:55Z</time>
      </trkpt>
      <trkpt lat="49.92625" lon="1.07016">
        <ele>-2.75</ele>
        <time>2020-06-18T11:33:10Z</time>
      </trkpt>
      <trkpt lat="49.92624" lon="1.07017">
        <ele>-2.75</ele>
        <time>2020-06-18T11:33:12Z</time>
      </trkpt>
      <trkpt lat="49.92616" lon="1.07025">
        <ele>-2.75</ele>
        <time>2020-06-18T11:33:21Z</time>
      </trkpt>
      <trkpt lat="49.92612" lon="1.07029">
        <ele>-2.75</ele>
        <time>2020-06-18T11:33:26Z</time>
      </trkpt>
      <trkpt lat="49.92597" lon="1.07042">
        <ele>-2.75</ele>
        <time>2020-06-18T11:33:43Z</time>
      </trkpt>
      <trkpt lat="49.92596" lon="1.07049">
        <ele>-2.75</ele>
        <time>2020-06-18T11:33:49Z</time>
      </trkpt>
      <trkpt lat="49.92594" lon="1.0706">
        <ele>-2.75</ele>
        <time>2020-06-18T11:33:56Z</time>
      </trkpt>
      <trkpt lat="49.92575" lon="1.07082">
        <ele>-2.75</ele>
        <time>2020-06-18T11:34:17Z</time>
      </trkpt>
      <trkpt lat="49.92567" lon="1.07108">
        <ele>-2.75</ele>
        <time>2020-06-18T11:34:34Z</time>
      </trkpt>
      <trkpt lat="49.92566" lon="1.07116">
        <ele>-2.75</ele>
        <time>2020-06-18T11:34:39Z</time>
      </trkpt>
      <trkpt lat="49.92561" lon="1.07139">
        <ele>-3.71</ele>
        <time>2020-06-18T11:34:56Z</time>
      </trkpt>
      <trkpt lat="49.92557" lon="1.07146">
        <ele>-3.71</ele>
        <time>2020-06-18T11:35:01Z</time>
      </trkpt>
      <trkpt lat="49.92556" lon="1.07163">
        <ele>-3.71</ele>
        <time>2020-06-18T11:35:12Z</time>
      </trkpt>
      <trkpt lat="49.92565" lon="1.07193">
        <ele>-4.19</ele>
        <time>2020-06-18T11:35:31Z</time>
      </trkpt>
      <trkpt lat="49.92565" lon="1.072">
        <ele>-4.19</ele>
        <time>2020-06-18T11:35:35Z</time>
      </trkpt>
      <trkpt lat="49.92563" lon="1.07205">
        <ele>-4.19</ele>
        <time>2020-06-18T11:35:39Z</time>
      </trkpt>
      <trkpt lat="49.92547" lon="1.07213">
        <ele>-3.71</ele>
        <time>2020-06-18T11:35:57Z</time>
      </trkpt>
      <trkpt lat="49.92532" lon="1.07221">
        <ele>-4.19</ele>
        <time>2020-06-18T11:36:14Z</time>
      </trkpt>
      <trkpt lat="49.9253" lon="1.07218">
        <ele>-4.19</ele>
        <time>2020-06-18T11:36:18Z</time>
      </trkpt>
      <trkpt lat="49.92523" lon="1.07206">
        <ele>-4.19</ele>
        <time>2020-06-18T11:36:29Z</time>
      </trkpt>
      <trkpt lat="49.92504" lon="1.07123">
        <ele>12.7</ele>
      </trkpt>
      <trkpt lat="49.92477" lon="1.0714">
        <ele>-2.75</ele>
        <time>2020-06-18T11:37:36Z</time>
      </trkpt>
      <trkpt lat="49.92459" lon="1.07156">
        <ele>-2.75</ele>
        <time>2020-06-18T11:37:52Z</time>
      </trkpt>
      <trkpt lat="49.92444" lon="1.07175">
        <ele>-2.75</ele>
        <time>2020-06-18T11:38:07Z</time>
      </trkpt>
      <trkpt lat="49.92427" lon="1.07191">
        <ele>-2.75</ele>
        <time>2020-06-18T11:38:23Z</time>
      </trkpt>
      <trkpt lat="49.9241" lon="1.07204">
        <ele>-1.79</ele>
        <time>2020-06-18T11:38:37Z</time>
      </trkpt>
      <trkpt lat="49.92392" lon="1.07218">
        <ele>-1.79</ele>
        <time>2020-06-18T11:38:53Z</time>
      </trkpt>
      <trkpt lat="49.92373" lon="1.07225">
        <ele>-1.79</ele>
        <time>2020-06-18T11:39:11Z</time>
      </trkpt>
      <trkpt lat="49.92369" lon="1.07231">
        <ele>-1.79</ele>
        <time>2020-06-18T11:39:17Z</time>
      </trkpt>
      <trkpt lat="49.92366" lon="1.07235">
        <ele>-1.79</ele>
        <time>2020-06-18T11:39:21Z</time>
      </trkpt>
      <trkpt lat="49.92361" lon="1.07225">
        <ele>-1.79</ele>
        <time>2020-06-18T11:39:32Z</time>
      </trkpt>
      <trkpt lat="49.92373" lon="1.07204">
        <ele>1.58</ele>
        <time>2020-06-18T11:39:51Z</time>
      </trkpt>
      <trkpt lat="49.92383" lon="1.07187">
        <ele>3.5</ele>
        <time>2020-06-18T11:40:06Z</time>
      </trkpt>
      <trkpt lat="49.9239" lon="1.07171">
        <ele>4.94</ele>
        <time>2020-06-18T11:40:19Z</time>
      </trkpt>
      <trkpt lat="49.92395" lon="1.07167">
        <ele>7.83</ele>
        <time>2020-06-18T11:40:31Z</time>
      </trkpt>
      <trkpt lat="49.924" lon="1.07159">
        <ele>8.79</ele>
        <time>2020-06-18T11:40:40Z</time>
      </trkpt>
      <trkpt lat="49.92404" lon="1.07156">
        <ele>9.27</ele>
        <time>2020-06-18T11:40:44Z</time>
      </trkpt>
      <trkpt lat="49.92412" lon="1.07144">
        <ele>11.67</ele>
        <time>2020-06-18T11:40:59Z</time>
      </trkpt>
      <trkpt lat="49.92419" lon="1.07132">
        <ele>13.12</ele>
        <time>2020-06-18T11:41:13Z</time>
      </trkpt>
      <trkpt lat="49.9243" lon="1.07117">
        <ele>15.52</ele>
        <time>2020-06-18T11:41:30Z</time>
      </trkpt>
      <trkpt lat="49.92437" lon="1.07103">
        <ele>17.44</ele>
        <time>2020-06-18T11:41:43Z</time>
      </trkpt>
      <trkpt lat="49.92448" lon="1.07089">
        <ele>19.36</ele>
        <time>2020-06-18T11:41:56Z</time>
      </trkpt>
      <trkpt lat="49.92452" lon="1.0708">
        <ele>20.32</ele>
        <time>2020-06-18T11:42:10Z</time>
      </trkpt>
      <trkpt lat="49.92455" lon="1.07076">
        <ele>20.81</ele>
        <time>2020-06-18T11:42:13Z</time>
      </trkpt>
      <trkpt lat="49.92464" lon="1.07059">
        <ele>22.25</ele>
        <time>2020-06-18T11:42:29Z</time>
      </trkpt>
      <trkpt lat="49.92464" lon="1.07058">
        <ele>22.25</ele>
        <time>2020-06-18T11:42:30Z</time>
      </trkpt>
      <trkpt lat="49.92478" lon="1.07041">
        <ele>24.17</ele>
        <time>2020-06-18T11:42:47Z</time>
      </trkpt>
      <trkpt lat="49.92478" lon="1.07039">
        <ele>24.17</ele>
        <time>2020-06-18T11:42:48Z</time>
      </trkpt>
      <trkpt lat="49.92487" lon="1.07028">
        <ele>24.65</ele>
        <time>2020-06-18T11:43:03Z</time>
      </trkpt>
      <trkpt lat="49.92498" lon="1.07019">
        <ele>25.13</ele>
        <time>2020-06-18T11:43:18Z</time>
      </trkpt>
      <trkpt lat="49.92497" lon="1.07018">
        <ele>25.61</ele>
        <time>2020-06-18T11:43:30Z</time>
      </trkpt>
      <trkpt lat="49.92495" lon="1.07021">
        <ele>25.61</ele>
        <time>2020-06-18T11:43:33Z</time>
      </trkpt>
      <trkpt lat="49.92488" lon="1.07027">
        <ele>25.61</ele>
        <time>2020-06-18T11:43:41Z</time>
      </trkpt>
      <trkpt lat="49.92471" lon="1.07041">
        <ele>24.17</ele>
        <time>2020-06-18T11:43:57Z</time>
      </trkpt>
      <trkpt lat="49.92458" lon="1.07055">
        <ele>24.65</ele>
        <time>2020-06-18T11:44:14Z</time>
      </trkpt>
      <trkpt lat="49.92443" lon="1.07065">
        <ele>28.1</ele>
      </trkpt>
      <trkpt lat="49.92426" lon="1.07083">
        <ele>26.9</ele>
      </trkpt>
      <trkpt lat="49.92415" lon="1.07089">
        <ele>24.6</ele>
      </trkpt>
      <trkpt lat="49.92413" lon="1.07083">
        <ele>25.1</ele>
      </trkpt>
      <trkpt lat="49.92424" lon="1.07065">
        <ele>28.2</ele>
      </trkpt>
      <trkpt lat="49.9244" lon="1.07045">
        <ele>30.1</ele>
      </trkpt>
      <trkpt lat="49.92464" lon="1.07026">
        <ele>30.7</ele>
      </trkpt>
      <trkpt lat="49.92443" lon="1.06978">
        <ele>41.6</ele>
      </trkpt>
      <trkpt lat="49.92442" lon="1.06966">
        <ele>42.1</ele>
      </trkpt>
      <trkpt lat="49.92443" lon="1.06955">
        <ele>42.6</ele>
      </trkpt>
      <trkpt lat="49.92455" lon="1.06941">
        <ele>42.8</ele>
      </trkpt>
      <trkpt lat="49.92514" lon="1.06881">
        <ele>31.3</ele>
      </trkpt>
      <trkpt lat="49.92511" lon="1.06845">
        <ele>35.5</ele>
      </trkpt>
      <trkpt lat="49.92512" lon="1.06879">
        <ele>31.5</ele>
      </trkpt>
      <trkpt lat="49.92441" lon="1.06956">
        <ele>42.6</ele>
      </trkpt>
      <trkpt lat="49.9244" lon="1.06976">
        <ele>41.8</ele>
      </trkpt>
      <trkpt lat="49.92423" lon="1.07">
        <ele>39.2</ele>
      </trkpt>
      <trkpt lat="49.92392" lon="1.07024">
        <ele>34.1</ele>
      </trkpt>
      <trkpt lat="49.92391" lon="1.07028">
        <ele>37.63</ele>
        <time>2020-06-18T12:17:36Z</time>
      </trkpt>
      <trkpt lat="49.92376" lon="1.07038">
        <ele>34.74</ele>
        <time>2020-06-18T12:17:52Z</time>
      </trkpt>
      <trkpt lat="49.92366" lon="1.0705">
        <ele>32.34</ele>
        <time>2020-06-18T12:18:07Z</time>
      </trkpt>
      <trkpt lat="49.92355" lon="1.07057">
        <ele>30.42</ele>
        <time>2020-06-18T12:18:23Z</time>
      </trkpt>
      <trkpt lat="49.9235" lon="1.0707">
        <ele>28.5</ele>
        <time>2020-06-18T12:18:34Z</time>
      </trkpt>
      <trkpt lat="49.92338" lon="1.07089">
        <ele>25.61</ele>
        <time>2020-06-18T12:18:50Z</time>
      </trkpt>
      <trkpt lat="49.92329" lon="1.07106">
        <ele>22.73</ele>
        <time>2020-06-18T12:19:06Z</time>
      </trkpt>
      <trkpt lat="49.92319" lon="1.07124">
        <ele>19.84</ele>
        <time>2020-06-18T12:19:22Z</time>
      </trkpt>
      <trkpt lat="49.92313" lon="1.07138">
        <ele>17.92</ele>
        <time>2020-06-18T12:19:37Z</time>
      </trkpt>
      <trkpt lat="49.92305" lon="1.07155">
        <ele>15.04</ele>
        <time>2020-06-18T12:19:52Z</time>
      </trkpt>
      <trkpt lat="49.92305" lon="1.07169">
        <ele>13.6</ele>
        <time>2020-06-18T12:20:01Z</time>
      </trkpt>
      <trkpt lat="49.92308" lon="1.07173">
        <ele>13.6</ele>
        <time>2020-06-18T12:20:05Z</time>
      </trkpt>
      <trkpt lat="49.92322" lon="1.07187">
        <ele>11.67</ele>
        <time>2020-06-18T12:20:21Z</time>
      </trkpt>
      <trkpt lat="49.92336" lon="1.07203">
        <ele>10.71</ele>
        <time>2020-06-18T12:20:37Z</time>
      </trkpt>
      <trkpt lat="49.9235" lon="1.07218">
        <ele>9.27</ele>
        <time>2020-06-18T12:20:53Z</time>
      </trkpt>
      <trkpt lat="49.92351" lon="1.0722">
        <ele>8.79</ele>
        <time>2020-06-18T12:20:55Z</time>
      </trkpt>
      <trkpt lat="49.9236" lon="1.07231">
        <ele>8.31</ele>
        <time>2020-06-18T12:21:08Z</time>
      </trkpt>
      <trkpt lat="49.92364" lon="1.07235">
        <ele>7.83</ele>
        <time>2020-06-18T12:21:21Z</time>
      </trkpt>
      <trkpt lat="49.92365" lon="1.07233">
        <ele>7.83</ele>
        <time>2020-06-18T12:21:42Z</time>
      </trkpt>
      <trkpt lat="49.92372" lon="1.07246">
        <ele>7.35</ele>
        <time>2020-06-18T12:22:00Z</time>
      </trkpt>
      <trkpt lat="49.92383" lon="1.07267">
        <ele>7.35</ele>
        <time>2020-06-18T12:22:15Z</time>
      </trkpt>
      <trkpt lat="49.92383" lon="1.07269">
        <ele>7.35</ele>
        <time>2020-06-18T12:22:16Z</time>
      </trkpt>
      <trkpt lat="49.92383" lon="1.07273">
        <ele>6.87</ele>
        <time>2020-06-18T12:22:18Z</time>
      </trkpt>
      <trkpt lat="49.92394" lon="1.0729">
        <ele>6.87</ele>
        <time>2020-06-18T12:22:32Z</time>
      </trkpt>
      <trkpt lat="49.92405" lon="1.07309">
        <ele>6.87</ele>
        <time>2020-06-18T12:22:45Z</time>
      </trkpt>
      <trkpt lat="49.92411" lon="1.07324">
        <ele>6.39</ele>
        <time>2020-06-18T12:22:58Z</time>
      </trkpt>
      <trkpt lat="49.92414" lon="1.07331">
        <ele>5.91</ele>
        <time>2020-06-18T12:23:08Z</time>
      </trkpt>
      <trkpt lat="49.92417" lon="1.07329">
        <ele>5.91</ele>
        <time>2020-06-18T12:23:11Z</time>
      </trkpt>
      <trkpt lat="49.9242" lon="1.07326">
        <ele>5.91</ele>
        <time>2020-06-18T12:23:15Z</time>
      </trkpt>
      <trkpt lat="49.92431" lon="1.07308">
        <ele>5.91</ele>
        <time>2020-06-18T12:23:28Z</time>
      </trkpt>
      <trkpt lat="49.92434" lon="1.07306">
        <ele>5.91</ele>
        <time>2020-06-18T12:23:31Z</time>
      </trkpt>
      <trkpt lat="49.92438" lon="1.073">
        <ele>5.91</ele>
        <time>2020-06-18T12:23:36Z</time>
      </trkpt>
      <trkpt lat="49.92447" lon="1.07295">
        <ele>5.91</ele>
        <time>2020-06-18T12:23:47Z</time>
      </trkpt>
      <trkpt lat="49.92462" lon="1.07295">
        <ele>5.91</ele>
        <time>2020-06-18T12:24:02Z</time>
      </trkpt>
      <trkpt lat="49.92467" lon="1.07302">
        <ele>6.87</ele>
        <time>2020-06-18T12:24:16Z</time>
      </trkpt>
      <trkpt lat="49.92484" lon="1.07305">
        <ele>6.87</ele>
        <time>2020-06-18T12:24:29Z</time>
      </trkpt>
      <trkpt lat="49.92488" lon="1.07307">
        <ele>6.87</ele>
        <time>2020-06-18T12:24:33Z</time>
      </trkpt>
      <trkpt lat="49.92489" lon="1.07309">
        <ele>6.87</ele>
        <time>2020-06-18T12:24:35Z</time>
      </trkpt>
      <trkpt lat="49.92495" lon="1.07319">
        <ele>6.87</ele>
        <time>2020-06-18T12:24:48Z</time>
      </trkpt>
      <trkpt lat="49.9251" lon="1.07341">
        <ele>6.39</ele>
        <time>2020-06-18T12:25:05Z</time>
      </trkpt>
      <trkpt lat="49.92514" lon="1.07352">
        <ele>6.39</ele>
        <time>2020-06-18T12:25:12Z</time>
      </trkpt>
      <trkpt lat="49.92521" lon="1.07373">
        <ele>6.39</ele>
        <time>2020-06-18T12:25:27Z</time>
      </trkpt>
      <trkpt lat="49.92522" lon="1.07395">
        <ele>5.91</ele>
        <time>2020-06-18T12:25:39Z</time>
      </trkpt>
      <trkpt lat="49.92522" lon="1.07399">
        <ele>5.91</ele>
        <time>2020-06-18T12:25:41Z</time>
      </trkpt>
      <trkpt lat="49.92518" lon="1.07407">
        <ele>5.91</ele>
        <time>2020-06-18T12:25:46Z</time>
      </trkpt>
      <trkpt lat="49.92518" lon="1.07416">
        <ele>5.91</ele>
        <time>2020-06-18T12:25:51Z</time>
      </trkpt>
      <trkpt lat="49.92516" lon="1.07422">
        <ele>5.91</ele>
        <time>2020-06-18T12:25:55Z</time>
      </trkpt>
      <trkpt lat="49.92514" lon="1.07428">
        <ele>5.91</ele>
        <time>2020-06-18T12:25:59Z</time>
      </trkpt>
      <trkpt lat="49.92505" lon="1.07435">
        <ele>5.91</ele>
        <time>2020-06-18T12:26:07Z</time>
      </trkpt>
      <trkpt lat="49.92501" lon="1.07441">
        <ele>5.91</ele>
        <time>2020-06-18T12:26:12Z</time>
      </trkpt>
      <trkpt lat="49.9249" lon="1.0744">
        <ele>5.91</ele>
        <time>2020-06-18T12:26:28Z</time>
      </trkpt>
      <trkpt lat="49.92486" lon="1.07441">
        <ele>5.91</ele>
        <time>2020-06-18T12:26:32Z</time>
      </trkpt>
      <trkpt lat="49.92477" lon="1.07447">
        <ele>5.42</ele>
        <time>2020-06-18T12:26:46Z</time>
      </trkpt>
      <trkpt lat="49.92479" lon="1.07452">
        <ele>4.46</ele>
        <time>2020-06-18T12:26:48Z</time>
      </trkpt>
      <trkpt lat="49.92477" lon="1.07483">
        <ele>4.46</ele>
        <time>2020-06-18T12:27:04Z</time>
      </trkpt>
      <trkpt lat="49.92479" lon="1.07487">
        <ele>4.46</ele>
        <time>2020-06-18T12:27:07Z</time>
      </trkpt>
      <trkpt lat="49.92483" lon="1.07509">
        <ele>3.98</ele>
        <time>2020-06-18T12:27:22Z</time>
      </trkpt>
      <trkpt lat="49.92487" lon="1.07529">
        <ele>3.98</ele>
        <time>2020-06-18T12:27:35Z</time>
      </trkpt>
      <trkpt lat="49.92495" lon="1.07552">
        <ele>3.98</ele>
        <time>2020-06-18T12:27:51Z</time>
      </trkpt>
      <trkpt lat="49.92501" lon="1.07573">
        <ele>3.98</ele>
        <time>2020-06-18T12:28:03Z</time>
      </trkpt>
      <trkpt lat="49.92502" lon="1.07578">
        <ele>3.98</ele>
        <time>2020-06-18T12:28:05Z</time>
      </trkpt>
      <trkpt lat="49.92506" lon="1.07596">
        <ele>3.98</ele>
        <time>2020-06-18T12:28:14Z</time>
      </trkpt>
      <trkpt lat="49.92512" lon="1.07613">
        <ele>3.98</ele>
        <time>2020-06-18T12:28:26Z</time>
      </trkpt>
      <trkpt lat="49.92522" lon="1.07648">
        <ele>4.46</ele>
        <time>2020-06-18T12:28:48Z</time>
      </trkpt>
      <trkpt lat="49.92526" lon="1.07673">
        <ele>5.42</ele>
        <time>2020-06-18T12:29:03Z</time>
      </trkpt>
      <trkpt lat="49.92529" lon="1.07689">
        <ele>5.42</ele>
        <time>2020-06-18T12:29:17Z</time>
      </trkpt>
      <trkpt lat="49.92536" lon="1.07705">
        <ele>5.91</ele>
        <time>2020-06-18T12:29:31Z</time>
      </trkpt>
      <trkpt lat="49.92541" lon="1.07725">
        <ele>5.91</ele>
        <time>2020-06-18T12:29:44Z</time>
      </trkpt>
      <trkpt lat="49.92556" lon="1.07747">
        <ele>5.91</ele>
        <time>2020-06-18T12:29:59Z</time>
      </trkpt>
      <trkpt lat="49.92554" lon="1.07763">
        <ele>5.91</ele>
        <time>2020-06-18T12:30:10Z</time>
      </trkpt>
      <trkpt lat="49.9256" lon="1.07768">
        <ele>5.91</ele>
        <time>2020-06-18T12:30:18Z</time>
      </trkpt>
      <trkpt lat="49.92556" lon="1.07787">
        <ele>6.39</ele>
        <time>2020-06-18T12:30:33Z</time>
      </trkpt>
      <trkpt lat="49.92562" lon="1.07818">
        <ele>6.39</ele>
        <time>2020-06-18T12:30:53Z</time>
      </trkpt>
      <trkpt lat="49.92568" lon="1.07842">
        <ele>6.39</ele>
        <time>2020-06-18T12:31:05Z</time>
      </trkpt>
      <trkpt lat="49.92576" lon="1.07776">
        <ele>6.39</ele>
        <time>2020-06-18T12:31:14Z</time>
      </trkpt>
      <trkpt lat="49.92582" lon="1.07781">
        <ele>12.5</ele>
      </trkpt>
      <trkpt lat="49.92583" lon="1.07787">
        <ele>6.39</ele>
        <time>2020-06-18T12:31:33Z</time>
      </trkpt>
      <trkpt lat="49.92584" lon="1.078">
        <ele>6.39</ele>
        <time>2020-06-18T12:31:41Z</time>
      </trkpt>
      <trkpt lat="49.92584" lon="1.07802">
        <ele>6.39</ele>
        <time>2020-06-18T12:31:42Z</time>
      </trkpt>
      <trkpt lat="49.92582" lon="1.07832">
        <ele>6.39</ele>
        <time>2020-06-18T12:31:59Z</time>
      </trkpt>
      <trkpt lat="49.92581" lon="1.07848">
        <ele>6.39</ele>
        <time>2020-06-18T12:32:11Z</time>
      </trkpt>
      <trkpt lat="49.92582" lon="1.07853">
        <ele>6.39</ele>
        <time>2020-06-18T12:32:14Z</time>
      </trkpt>
      <trkpt lat="49.92578" lon="1.07882">
        <ele>6.39</ele>
        <time>2020-06-18T12:32:29Z</time>
      </trkpt>
      <trkpt lat="49.92572" lon="1.07896">
        <ele>6.39</ele>
        <time>2020-06-18T12:32:41Z</time>
      </trkpt>
      <trkpt lat="49.92567" lon="1.07901">
        <ele>6.39</ele>
        <time>2020-06-18T12:32:47Z</time>
      </trkpt>
      <trkpt lat="49.92557" lon="1.07907">
        <ele>6.39</ele>
        <time>2020-06-18T12:32:58Z</time>
      </trkpt>
      <trkpt lat="49.9254" lon="1.0791">
        <ele>6.39</ele>
        <time>2020-06-18T12:33:13Z</time>
      </trkpt>
      <trkpt lat="49.92533" lon="1.07913">
        <ele>6.39</ele>
        <time>2020-06-18T12:33:24Z</time>
      </trkpt>
      <trkpt lat="49.92534" lon="1.07915">
        <ele>6.39</ele>
        <time>2020-06-18T12:33:25Z</time>
      </trkpt>
      <trkpt lat="49.92527" lon="1.07941">
        <ele>6.39</ele>
        <time>2020-06-18T12:33:36Z</time>
      </trkpt>
      <trkpt lat="49.92529" lon="1.07955">
        <ele>6.39</ele>
        <time>2020-06-18T12:33:43Z</time>
      </trkpt>
      <trkpt lat="49.92537" lon="1.07974">
        <ele>6.39</ele>
        <time>2020-06-18T12:33:55Z</time>
      </trkpt>
      <trkpt lat="49.92548" lon="1.08001">
        <ele>4.94</ele>
        <time>2020-06-18T12:34:13Z</time>
      </trkpt>
      <trkpt lat="49.9255" lon="1.08008">
        <ele>4.94</ele>
        <time>2020-06-18T12:34:17Z</time>
      </trkpt>
      <trkpt lat="49.92553" lon="1.08026">
        <ele>4.46</ele>
        <time>2020-06-18T12:34:28Z</time>
      </trkpt>
      <trkpt lat="49.92556" lon="1.08041">
        <ele>4.46</ele>
        <time>2020-06-18T12:34:40Z</time>
      </trkpt>
      <trkpt lat="49.92549" lon="1.08068">
        <ele>4.46</ele>
        <time>2020-06-18T12:34:57Z</time>
      </trkpt>
      <trkpt lat="49.92547" lon="1.0807">
        <ele>4.46</ele>
        <time>2020-06-18T12:34:59Z</time>
      </trkpt>
      <trkpt lat="49.9253" lon="1.08079">
        <ele>4.46</ele>
        <time>2020-06-18T12:35:15Z</time>
      </trkpt>
      <trkpt lat="49.92512" lon="1.08091">
        <ele>4.46</ele>
        <time>2020-06-18T12:35:33Z</time>
      </trkpt>
      <trkpt lat="49.92493" lon="1.081">
        <ele>4.46</ele>
        <time>2020-06-18T12:35:51Z</time>
      </trkpt>
      <trkpt lat="49.92488" lon="1.08102">
        <ele>4.46</ele>
        <time>2020-06-18T12:35:56Z</time>
      </trkpt>
      <trkpt lat="49.92466" lon="1.08105">
        <ele>4.46</ele>
        <time>2020-06-18T12:36:15Z</time>
      </trkpt>
      <trkpt lat="49.92461" lon="1.08109">
        <ele>4.46</ele>
        <time>2020-06-18T12:36:20Z</time>
      </trkpt>
      <trkpt lat="49.92448" lon="1.08117">
        <ele>5.91</ele>
        <time>2020-06-18T12:36:33Z</time>
      </trkpt>
      <trkpt lat="49.92427" lon="1.0813">
        <ele>5.42</ele>
        <time>2020-06-18T12:36:52Z</time>
      </trkpt>
      <trkpt lat="49.92411" lon="1.08139">
        <ele>5.42</ele>
        <time>2020-06-18T12:37:10Z</time>
      </trkpt>
      <trkpt lat="49.92396" lon="1.08147">
        <ele>5.42</ele>
        <time>2020-06-18T12:37:26Z</time>
      </trkpt>
      <trkpt lat="49.92374" lon="1.0816">
        <ele>5.42</ele>
        <time>2020-06-18T12:37:47Z</time>
      </trkpt>
      <trkpt lat="49.92354" lon="1.08175">
        <ele>5.42</ele>
        <time>2020-06-18T12:38:06Z</time>
      </trkpt>
      <trkpt lat="49.92333" lon="1.08188">
        <ele>5.91</ele>
        <time>2020-06-18T12:38:25Z</time>
      </trkpt>
      <trkpt lat="49.92329" lon="1.0819">
        <ele>5.91</ele>
        <time>2020-06-18T12:38:29Z</time>
      </trkpt>
      <trkpt lat="49.92324" lon="1.08192">
        <ele>5.91</ele>
        <time>2020-06-18T12:38:33Z</time>
      </trkpt>
      <trkpt lat="49.92303" lon="1.08201">
        <ele>5.91</ele>
        <time>2020-06-18T12:38:53Z</time>
      </trkpt>
      <trkpt lat="49.92289" lon="1.0821">
        <ele>5.91</ele>
        <time>2020-06-18T12:39:09Z</time>
      </trkpt>
      <trkpt lat="49.92276" lon="1.08221">
        <ele>5.91</ele>
        <time>2020-06-18T12:39:26Z</time>
      </trkpt>
      <trkpt lat="49.92275" lon="1.0823">
        <ele>5.91</ele>
        <time>2020-06-18T12:39:39Z</time>
      </trkpt>
      <trkpt lat="49.92275" lon="1.08234">
        <ele>5.91</ele>
        <time>2020-06-18T12:39:53Z</time>
      </trkpt>
      <trkpt lat="49.92276" lon="1.08233">
        <ele>5.91</ele>
        <time>2020-06-18T12:40:08Z</time>
      </trkpt>
      <trkpt lat="49.92278" lon="1.08233">
        <ele>5.42</ele>
        <time>2020-06-18T12:40:34Z</time>
      </trkpt>
      <trkpt lat="49.92277" lon="1.08238">
        <ele>5.42</ele>
        <time>2020-06-18T12:40:50Z</time>
      </trkpt>
      <trkpt lat="49.92277" lon="1.0824">
        <ele>5.42</ele>
        <time>2020-06-18T12:40:51Z</time>
      </trkpt>
      <trkpt lat="49.92283" lon="1.08261">
        <ele>5.42</ele>
        <time>2020-06-18T12:41:06Z</time>
      </trkpt>
      <trkpt lat="49.92283" lon="1.08264">
        <ele>5.42</ele>
        <time>2020-06-18T12:41:08Z</time>
      </trkpt>
      <trkpt lat="49.92288" lon="1.08285">
        <ele>5.42</ele>
        <time>2020-06-18T12:41:22Z</time>
      </trkpt>
      <trkpt lat="49.92294" lon="1.08291">
        <ele>5.42</ele>
        <time>2020-06-18T12:41:28Z</time>
      </trkpt>
      <trkpt lat="49.92302" lon="1.08322">
        <ele>5.42</ele>
        <time>2020-06-18T12:41:46Z</time>
      </trkpt>
      <trkpt lat="49.92312" lon="1.08331">
        <ele>5.91</ele>
        <time>2020-06-18T12:41:59Z</time>
      </trkpt>
      <trkpt lat="49.92314" lon="1.08336">
        <ele>5.91</ele>
        <time>2020-06-18T12:42:16Z</time>
      </trkpt>
      <trkpt lat="49.92315" lon="1.08337">
        <ele>5.91</ele>
        <time>2020-06-18T12:42:17Z</time>
      </trkpt>
      <trkpt lat="49.92329" lon="1.08364">
        <ele>4.94</ele>
        <time>2020-06-18T12:42:37Z</time>
      </trkpt>
      <trkpt lat="49.92332" lon="1.08377">
        <ele>4.46</ele>
        <time>2020-06-18T12:42:54Z</time>
      </trkpt>
      <trkpt lat="49.92335" lon="1.08393">
        <ele>4.46</ele>
        <time>2020-06-18T12:43:05Z</time>
      </trkpt>
      <trkpt lat="49.92337" lon="1.084">
        <ele>4.46</ele>
        <time>2020-06-18T12:43:10Z</time>
      </trkpt>
      <trkpt lat="49.92333" lon="1.08417">
        <ele>4.46</ele>
        <time>2020-06-18T12:43:24Z</time>
      </trkpt>
      <trkpt lat="49.92333" lon="1.08419">
        <ele>4.46</ele>
        <time>2020-06-18T12:43:25Z</time>
      </trkpt>
      <trkpt lat="49.92334" lon="1.0843">
        <ele>4.46</ele>
        <time>2020-06-18T12:43:33Z</time>
      </trkpt>
      <trkpt lat="49.92333" lon="1.08434">
        <ele>4.46</ele>
        <time>2020-06-18T12:43:36Z</time>
      </trkpt>
      <trkpt lat="49.92333" lon="1.08458">
        <ele>4.94</ele>
        <time>2020-06-18T12:43:50Z</time>
      </trkpt>
      <trkpt lat="49.92332" lon="1.08476">
        <ele>4.94</ele>
        <time>2020-06-18T12:44:05Z</time>
      </trkpt>
      <trkpt lat="49.92332" lon="1.08478">
        <ele>4.94</ele>
        <time>2020-06-18T12:44:06Z</time>
      </trkpt>
      <trkpt lat="49.92335" lon="1.08486">
        <ele>4.94</ele>
        <time>2020-06-18T12:44:11Z</time>
      </trkpt>
      <trkpt lat="49.92336" lon="1.08504">
        <ele>4.94</ele>
        <time>2020-06-18T12:44:22Z</time>
      </trkpt>
      <trkpt lat="49.92319" lon="1.0853">
        <ele>4.94</ele>
        <time>2020-06-18T12:44:42Z</time>
      </trkpt>
      <trkpt lat="49.92307" lon="1.08558">
        <ele>4.94</ele>
        <time>2020-06-18T12:45:00Z</time>
      </trkpt>
      <trkpt lat="49.92291" lon="1.08589">
        <ele>4.94</ele>
        <time>2020-06-18T12:45:20Z</time>
      </trkpt>
      <trkpt lat="49.92283" lon="1.08592">
        <ele>4.94</ele>
        <time>2020-06-18T12:45:26Z</time>
      </trkpt>
      <trkpt lat="49.92292" lon="1.08626">
        <ele>4.94</ele>
        <time>2020-06-18T12:45:43Z</time>
      </trkpt>
      <trkpt lat="49.92305" lon="1.08651">
        <ele>6.39</ele>
        <time>2020-06-18T12:46:01Z</time>
      </trkpt>
      <trkpt lat="49.9231" lon="1.08659">
        <ele>6.39</ele>
        <time>2020-06-18T12:46:15Z</time>
      </trkpt>
      <trkpt lat="49.9232" lon="1.08671">
        <ele>6.39</ele>
        <time>2020-06-18T12:46:29Z</time>
      </trkpt>
      <trkpt lat="49.92322" lon="1.08679">
        <ele>6.39</ele>
        <time>2020-06-18T12:46:35Z</time>
      </trkpt>
      <trkpt lat="49.92333" lon="1.08703">
        <ele>6.39</ele>
        <time>2020-06-18T12:46:52Z</time>
      </trkpt>
      <trkpt lat="49.92333" lon="1.08717">
        <ele>6.39</ele>
        <time>2020-06-18T12:47:03Z</time>
      </trkpt>
      <trkpt lat="49.92343" lon="1.08747">
        <ele>5.42</ele>
        <time>2020-06-18T12:47:22Z</time>
      </trkpt>
      <trkpt lat="49.92352" lon="1.08779">
        <ele>5.42</ele>
        <time>2020-06-18T12:47:42Z</time>
      </trkpt>
      <trkpt lat="49.92361" lon="1.08804">
        <ele>5.42</ele>
        <time>2020-06-18T12:47:58Z</time>
      </trkpt>
      <trkpt lat="49.9237" lon="1.08831">
        <ele>4.46</ele>
        <time>2020-06-18T12:48:14Z</time>
      </trkpt>
      <trkpt lat="49.92381" lon="1.08861">
        <ele>4.46</ele>
        <time>2020-06-18T12:48:33Z</time>
      </trkpt>
      <trkpt lat="49.92388" lon="1.08896">
        <ele>4.46</ele>
        <time>2020-06-18T12:48:49Z</time>
      </trkpt>
      <trkpt lat="49.92399" lon="1.08923">
        <ele>4.46</ele>
        <time>2020-06-18T12:49:07Z</time>
      </trkpt>
      <trkpt lat="49.92407" lon="1.08944">
        <ele>5.42</ele>
        <time>2020-06-18T12:49:20Z</time>
      </trkpt>
      <trkpt lat="49.92419" lon="1.08969">
        <ele>5.42</ele>
        <time>2020-06-18T12:49:37Z</time>
      </trkpt>
      <trkpt lat="49.92419" lon="1.08971">
        <ele>5.42</ele>
        <time>2020-06-18T12:49:38Z</time>
      </trkpt>
      <trkpt lat="49.92422" lon="1.08979">
        <ele>5.42</ele>
        <time>2020-06-18T12:49:42Z</time>
      </trkpt>
      <trkpt lat="49.92427" lon="1.0899">
        <ele>5.42</ele>
        <time>2020-06-18T12:49:49Z</time>
      </trkpt>
      <trkpt lat="49.92429" lon="1.08997">
        <ele>5.42</ele>
        <time>2020-06-18T12:49:53Z</time>
      </trkpt>
      <trkpt lat="49.92439" lon="1.09025">
        <ele>5.42</ele>
        <time>2020-06-18T12:50:09Z</time>
      </trkpt>
      <trkpt lat="49.92446" lon="1.09041">
        <ele>5.42</ele>
        <time>2020-06-18T12:50:19Z</time>
      </trkpt>
      <trkpt lat="49.92454" lon="1.09065">
        <ele>5.42</ele>
        <time>2020-06-18T12:50:36Z</time>
      </trkpt>
      <trkpt lat="49.92456" lon="1.09065">
        <ele>4.46</ele>
        <time>2020-06-18T12:50:38Z</time>
      </trkpt>
      <trkpt lat="49.92472" lon="1.09048">
        <ele>3.98</ele>
        <time>2020-06-18T12:50:51Z</time>
      </trkpt>
      <trkpt lat="49.92485" lon="1.09021">
        <ele>3.98</ele>
        <time>2020-06-18T12:51:09Z</time>
      </trkpt>
      <trkpt lat="49.92486" lon="1.09018">
        <ele>3.98</ele>
        <time>2020-06-18T12:51:11Z</time>
      </trkpt>
      <trkpt lat="49.92497" lon="1.08996">
        <ele>4.46</ele>
        <time>2020-06-18T12:51:28Z</time>
      </trkpt>
      <trkpt lat="49.92499" lon="1.0899">
        <ele>4.46</ele>
        <time>2020-06-18T12:51:35Z</time>
      </trkpt>
      <trkpt lat="49.92509" lon="1.08962">
        <ele>4.46</ele>
        <time>2020-06-18T12:51:53Z</time>
      </trkpt>
      <trkpt lat="49.92519" lon="1.08937">
        <ele>3.98</ele>
        <time>2020-06-18T12:52:10Z</time>
      </trkpt>
      <trkpt lat="49.92524" lon="1.08927">
        <ele>3.98</ele>
        <time>2020-06-18T12:52:17Z</time>
      </trkpt>
      <trkpt lat="49.92543" lon="1.08902">
        <ele>4.46</ele>
        <time>2020-06-18T12:52:37Z</time>
      </trkpt>
      <trkpt lat="49.92555" lon="1.08888">
        <ele>4.46</ele>
        <time>2020-06-18T12:52:49Z</time>
      </trkpt>
      <trkpt lat="49.9256" lon="1.08882">
        <ele>4.46</ele>
        <time>2020-06-18T12:52:54Z</time>
      </trkpt>
      <trkpt lat="49.9257" lon="1.08867">
        <ele>4.46</ele>
        <time>2020-06-18T12:53:07Z</time>
      </trkpt>
      <trkpt lat="49.92587" lon="1.08842">
        <ele>4.46</ele>
        <time>2020-06-18T12:53:27Z</time>
      </trkpt>
      <trkpt lat="49.92593" lon="1.08834">
        <ele>4.46</ele>
        <time>2020-06-18T12:53:34Z</time>
      </trkpt>
      <trkpt lat="49.92606" lon="1.0883">
        <ele>4.46</ele>
        <time>2020-06-18T12:53:45Z</time>
      </trkpt>
      <trkpt lat="49.92615" lon="1.08821">
        <ele>4.46</ele>
        <time>2020-06-18T12:53:58Z</time>
      </trkpt>
      <trkpt lat="49.9262" lon="1.08818">
        <ele>4.46</ele>
        <time>2020-06-18T12:54:03Z</time>
      </trkpt>
      <trkpt lat="49.92633" lon="1.08796">
        <ele>4.46</ele>
        <time>2020-06-18T12:54:17Z</time>
      </trkpt>
      <trkpt lat="49.92634" lon="1.08795">
        <ele>4.46</ele>
        <time>2020-06-18T12:54:18Z</time>
      </trkpt>
      <trkpt lat="49.92638" lon="1.08791">
        <ele>4.46</ele>
        <time>2020-06-18T12:54:22Z</time>
      </trkpt>
      <trkpt lat="49.92647" lon="1.08765">
        <ele>4.46</ele>
        <time>2020-06-18T12:54:39Z</time>
      </trkpt>
      <trkpt lat="49.9265" lon="1.08759">
        <ele>4.46</ele>
        <time>2020-06-18T12:54:43Z</time>
      </trkpt>
      <trkpt lat="49.9266" lon="1.08735">
        <ele>4.46</ele>
        <time>2020-06-18T12:54:59Z</time>
      </trkpt>
      <trkpt lat="49.92668" lon="1.08729">
        <ele>4.46</ele>
        <time>2020-06-18T12:55:08Z</time>
      </trkpt>
      <trkpt lat="49.92689" lon="1.08727">
        <ele>4.46</ele>
        <time>2020-06-18T12:55:26Z</time>
      </trkpt>
      <trkpt lat="49.927" lon="1.08724">
        <ele>4.46</ele>
        <time>2020-06-18T12:55:41Z</time>
      </trkpt>
      <trkpt lat="49.92701" lon="1.08721">
        <ele>4.46</ele>
        <time>2020-06-18T12:55:52Z</time>
      </trkpt>
      <trkpt lat="49.92708" lon="1.08713">
        <ele>5.91</ele>
        <time>2020-06-18T12:56:00Z</time>
      </trkpt>
      <trkpt lat="49.92743" lon="1.08766">
        <ele>-3.23</ele>
        <time>2020-06-18T12:58:31Z</time>
      </trkpt>
      <trkpt lat="49.92741" lon="1.08753">
        <ele>-3.23</ele>
        <time>2020-06-18T12:58:48Z</time>
      </trkpt>
      <trkpt lat="49.92743" lon="1.08753">
        <ele>0.14</ele>
        <time>2020-06-18T12:58:56Z</time>
      </trkpt>
      <trkpt lat="49.92744" lon="1.08754">
        <ele>1.1</ele>
        <time>2020-06-18T12:58:57Z</time>
      </trkpt>
      <trkpt lat="49.92746" lon="1.08761">
        <ele>4.94</ele>
        <time>2020-06-18T12:59:02Z</time>
      </trkpt>
      <trkpt lat="49.92748" lon="1.08766">
        <ele>8.31</ele>
        <time>2020-06-18T12:59:07Z</time>
      </trkpt>
      <trkpt lat="49.92748" lon="1.08764">
        <ele>11.19</ele>
        <time>2020-06-18T12:59:11Z</time>
      </trkpt>
      <trkpt lat="49.9275" lon="1.08762">
        <ele>14.56</ele>
        <time>2020-06-18T12:59:19Z</time>
      </trkpt>
      <trkpt lat="49.92759" lon="1.08754">
        <ele>16</ele>
        <time>2020-06-18T12:59:32Z</time>
      </trkpt>
      <trkpt lat="49.92772" lon="1.0877">
        <ele>16</ele>
        <time>2020-06-18T12:59:48Z</time>
      </trkpt>
      <trkpt lat="49.92777" lon="1.08774">
        <ele>17.44</ele>
        <time>2020-06-18T12:59:55Z</time>
      </trkpt>
      <trkpt lat="49.92795" lon="1.08781">
        <ele>19.36</ele>
        <time>2020-06-18T13:00:12Z</time>
      </trkpt>
      <trkpt lat="49.92803" lon="1.08801">
        <ele>20.81</ele>
        <time>2020-06-18T13:00:27Z</time>
      </trkpt>
      <trkpt lat="49.92803" lon="1.08804">
        <ele>21.29</ele>
        <time>2020-06-18T13:00:29Z</time>
      </trkpt>
      <trkpt lat="49.92804" lon="1.08808">
        <ele>21.29</ele>
        <time>2020-06-18T13:00:32Z</time>
      </trkpt>
      <trkpt lat="49.92807" lon="1.088">
        <ele>22.73</ele>
        <time>2020-06-18T13:00:44Z</time>
      </trkpt>
      <trkpt lat="49.92806" lon="1.08794">
        <ele>23.69</ele>
        <time>2020-06-18T13:00:59Z</time>
      </trkpt>
      <trkpt lat="49.92809" lon="1.08787">
        <ele>24.17</ele>
        <time>2020-06-18T13:01:24Z</time>
      </trkpt>
      <trkpt lat="49.92811" lon="1.08777">
        <ele>25.13</ele>
        <time>2020-06-18T13:01:31Z</time>
      </trkpt>
      <trkpt lat="49.92813" lon="1.0877">
        <ele>26.57</ele>
        <time>2020-06-18T13:01:46Z</time>
      </trkpt>
      <trkpt lat="49.92817" lon="1.08764">
        <ele>26.57</ele>
        <time>2020-06-18T13:02:05Z</time>
      </trkpt>
      <trkpt lat="49.92828" lon="1.08769">
        <ele>28.5</ele>
        <time>2020-06-18T13:02:20Z</time>
      </trkpt>
      <trkpt lat="49.92837" lon="1.08783">
        <ele>30.42</ele>
        <time>2020-06-18T13:02:35Z</time>
      </trkpt>
      <trkpt lat="49.92846" lon="1.08784">
        <ele>31.86</ele>
        <time>2020-06-18T13:02:49Z</time>
      </trkpt>
      <trkpt lat="49.92847" lon="1.08787">
        <ele>31.86</ele>
        <time>2020-06-18T13:02:54Z</time>
      </trkpt>
      <trkpt lat="49.92847" lon="1.08795">
        <ele>31.86</ele>
        <time>2020-06-18T13:02:59Z</time>
      </trkpt>
      <trkpt lat="49.92853" lon="1.08824">
        <ele>31.86</ele>
        <time>2020-06-18T13:03:17Z</time>
      </trkpt>
      <trkpt lat="49.92857" lon="1.08856">
        <ele>32.34</ele>
        <time>2020-06-18T13:03:35Z</time>
      </trkpt>
      <trkpt lat="49.92863" lon="1.08888">
        <ele>32.34</ele>
        <time>2020-06-18T13:03:53Z</time>
      </trkpt>
      <trkpt lat="49.9287" lon="1.08916">
        <ele>33.3</ele>
        <time>2020-06-18T13:04:10Z</time>
      </trkpt>
      <trkpt lat="49.9288" lon="1.08942">
        <ele>34.26</ele>
        <time>2020-06-18T13:04:27Z</time>
      </trkpt>
      <trkpt lat="49.92885" lon="1.08954">
        <ele>35.23</ele>
        <time>2020-06-18T13:04:35Z</time>
      </trkpt>
      <trkpt lat="49.92902" lon="1.08973">
        <ele>36.19</ele>
        <time>2020-06-18T13:04:54Z</time>
      </trkpt>
      <trkpt lat="49.92906" lon="1.08977">
        <ele>36.19</ele>
        <time>2020-06-18T13:04:59Z</time>
      </trkpt>
      <trkpt lat="49.92912" lon="1.08983">
        <ele>37.15</ele>
        <time>2020-06-18T13:05:05Z</time>
      </trkpt>
      <trkpt lat="49.9292" lon="1.08989">
        <ele>37.15</ele>
        <time>2020-06-18T13:05:13Z</time>
      </trkpt>
      <trkpt lat="49.92932" lon="1.08979">
        <ele>38.11</ele>
        <time>2020-06-18T13:05:26Z</time>
      </trkpt>
      <trkpt lat="49.92946" lon="1.08965">
        <ele>39.07</ele>
        <time>2020-06-18T13:05:41Z</time>
      </trkpt>
      <trkpt lat="49.92949" lon="1.08964">
        <ele>39.07</ele>
        <time>2020-06-18T13:05:43Z</time>
      </trkpt>
      <trkpt lat="49.92963" lon="1.08983">
        <ele>39.07</ele>
        <time>2020-06-18T13:06:01Z</time>
      </trkpt>
      <trkpt lat="49.92964" lon="1.08984">
        <ele>39.07</ele>
        <time>2020-06-18T13:06:02Z</time>
      </trkpt>
      <trkpt lat="49.92976" lon="1.09004">
        <ele>39.55</ele>
        <time>2020-06-18T13:06:18Z</time>
      </trkpt>
      <trkpt lat="49.92982" lon="1.0901">
        <ele>39.55</ele>
        <time>2020-06-18T13:06:25Z</time>
      </trkpt>
      <trkpt lat="49.92984" lon="1.09022">
        <ele>39.55</ele>
        <time>2020-06-18T13:06:39Z</time>
      </trkpt>
      <trkpt lat="49.92988" lon="1.09027">
        <ele>39.55</ele>
        <time>2020-06-18T13:06:42Z</time>
      </trkpt>
      <trkpt lat="49.92999" lon="1.09051">
        <ele>40.03</ele>
        <time>2020-06-18T13:07:03Z</time>
      </trkpt>
      <trkpt lat="49.9301" lon="1.09069">
        <ele>40.51</ele>
        <time>2020-06-18T13:07:17Z</time>
      </trkpt>
      <trkpt lat="49.93023" lon="1.09095">
        <ele>40.99</ele>
        <time>2020-06-18T13:07:33Z</time>
      </trkpt>
      <trkpt lat="49.93037" lon="1.0912">
        <ele>41.47</ele>
        <time>2020-06-18T13:07:53Z</time>
      </trkpt>
      <trkpt lat="49.9304" lon="1.09127">
        <ele>41.47</ele>
        <time>2020-06-18T13:07:58Z</time>
      </trkpt>
      <trkpt lat="49.9304" lon="1.09129">
        <ele>41.47</ele>
        <time>2020-06-18T13:08:11Z</time>
      </trkpt>
      <trkpt lat="49.93038" lon="1.09129">
        <ele>41.47</ele>
        <time>2020-06-18T13:08:35Z</time>
      </trkpt>
      <trkpt lat="49.93038" lon="1.09128">
        <ele>40.51</ele>
        <time>2020-06-18T13:08:39Z</time>
      </trkpt>
      <trkpt lat="49.93039" lon="1.09125">
        <ele>40.51</ele>
        <time>2020-06-18T13:09:00Z</time>
      </trkpt>
      <trkpt lat="49.93039" lon="1.09127">
        <ele>41.47</ele>
        <time>2020-06-18T13:09:13Z</time>
      </trkpt>
      <trkpt lat="49.93037" lon="1.09126">
        <ele>41.95</ele>
        <time>2020-06-18T13:09:30Z</time>
      </trkpt>
      <trkpt lat="49.93038" lon="1.09125">
        <ele>41.95</ele>
        <time>2020-06-18T13:09:47Z</time>
      </trkpt>
      <trkpt lat="49.93047" lon="1.0914">
        <ele>41.95</ele>
        <time>2020-06-18T13:10:04Z</time>
      </trkpt>
      <trkpt lat="49.93062" lon="1.09154">
        <ele>41.95</ele>
        <time>2020-06-18T13:10:19Z</time>
      </trkpt>
      <trkpt lat="49.93079" lon="1.09178">
        <ele>41.95</ele>
        <time>2020-06-18T13:10:36Z</time>
      </trkpt>
      <trkpt lat="49.93082" lon="1.09182">
        <ele>41.95</ele>
        <time>2020-06-18T13:10:41Z</time>
      </trkpt>
      <trkpt lat="49.93087" lon="1.09191">
        <ele>41.95</ele>
        <time>2020-06-18T13:10:53Z</time>
      </trkpt>
      <trkpt lat="49.93094" lon="1.09199">
        <ele>41.95</ele>
        <time>2020-06-18T13:11:04Z</time>
      </trkpt>
      <trkpt lat="49.93099" lon="1.09216">
        <ele>41.95</ele>
        <time>2020-06-18T13:11:17Z</time>
      </trkpt>
      <trkpt lat="49.93111" lon="1.0924">
        <ele>42.44</ele>
        <time>2020-06-18T13:11:33Z</time>
      </trkpt>
      <trkpt lat="49.93121" lon="1.09261">
        <ele>43.88</ele>
        <time>2020-06-18T13:11:47Z</time>
      </trkpt>
      <trkpt lat="49.93128" lon="1.09273">
        <ele>44.36</ele>
        <time>2020-06-18T13:11:57Z</time>
      </trkpt>
      <trkpt lat="49.93138" lon="1.09297">
        <ele>45.32</ele>
        <time>2020-06-18T13:12:13Z</time>
      </trkpt>
      <trkpt lat="49.93146" lon="1.09319">
        <ele>46.28</ele>
        <time>2020-06-18T13:12:27Z</time>
      </trkpt>
      <trkpt lat="49.93159" lon="1.09345">
        <ele>46.76</ele>
        <time>2020-06-18T13:12:45Z</time>
      </trkpt>
      <trkpt lat="49.93161" lon="1.09352">
        <ele>47.24</ele>
        <time>2020-06-18T13:12:49Z</time>
      </trkpt>
      <trkpt lat="49.93172" lon="1.09381">
        <ele>47.24</ele>
        <time>2020-06-18T13:13:06Z</time>
      </trkpt>
      <trkpt lat="49.9318" lon="1.09406">
        <ele>47.72</ele>
        <time>2020-06-18T13:13:22Z</time>
      </trkpt>
      <trkpt lat="49.93188" lon="1.09437">
        <ele>48.68</ele>
        <time>2020-06-18T13:13:41Z</time>
      </trkpt>
      <trkpt lat="49.93188" lon="1.09445">
        <ele>48.68</ele>
        <time>2020-06-18T13:13:56Z</time>
      </trkpt>
      <trkpt lat="49.93195" lon="1.09462">
        <ele>49.16</ele>
        <time>2020-06-18T13:14:12Z</time>
      </trkpt>
      <trkpt lat="49.932" lon="1.09479">
        <ele>49.65</ele>
        <time>2020-06-18T13:14:22Z</time>
      </trkpt>
      <trkpt lat="49.93202" lon="1.09488">
        <ele>49.65</ele>
        <time>2020-06-18T13:14:27Z</time>
      </trkpt>
      <trkpt lat="49.93211" lon="1.09518">
        <ele>50.13</ele>
        <time>2020-06-18T13:14:45Z</time>
      </trkpt>
      <trkpt lat="49.93221" lon="1.0954">
        <ele>50.61</ele>
        <time>2020-06-18T13:15:02Z</time>
      </trkpt>
      <trkpt lat="49.93228" lon="1.09564">
        <ele>50.61</ele>
        <time>2020-06-18T13:15:18Z</time>
      </trkpt>
      <trkpt lat="49.93235" lon="1.0959">
        <ele>51.09</ele>
        <time>2020-06-18T13:15:32Z</time>
      </trkpt>
      <trkpt lat="49.93239" lon="1.09602">
        <ele>51.09</ele>
        <time>2020-06-18T13:15:40Z</time>
      </trkpt>
      <trkpt lat="49.93245" lon="1.09636">
        <ele>51.09</ele>
        <time>2020-06-18T13:15:55Z</time>
      </trkpt>
      <trkpt lat="49.93256" lon="1.09665">
        <ele>51.57</ele>
        <time>2020-06-18T13:16:13Z</time>
      </trkpt>
      <trkpt lat="49.93264" lon="1.09685">
        <ele>51.57</ele>
        <time>2020-06-18T13:16:27Z</time>
      </trkpt>
      <trkpt lat="49.93274" lon="1.09713">
        <ele>52.05</ele>
        <time>2020-06-18T13:16:44Z</time>
      </trkpt>
      <trkpt lat="49.93284" lon="1.09735">
        <ele>52.05</ele>
        <time>2020-06-18T13:16:58Z</time>
      </trkpt>
      <trkpt lat="49.93291" lon="1.09755">
        <ele>52.05</ele>
        <time>2020-06-18T13:17:11Z</time>
      </trkpt>
      <trkpt lat="49.93302" lon="1.09782">
        <ele>52.05</ele>
        <time>2020-06-18T13:17:30Z</time>
      </trkpt>
      <trkpt lat="49.93304" lon="1.09791">
        <ele>52.53</ele>
        <time>2020-06-18T13:17:43Z</time>
      </trkpt>
      <trkpt lat="49.9329" lon="1.09809">
        <ele>52.53</ele>
        <time>2020-06-18T13:17:59Z</time>
      </trkpt>
      <trkpt lat="49.93279" lon="1.09832">
        <ele>53.49</ele>
        <time>2020-06-18T13:18:15Z</time>
      </trkpt>
      <trkpt lat="49.93266" lon="1.09858">
        <ele>53.97</ele>
        <time>2020-06-18T13:18:33Z</time>
      </trkpt>
      <trkpt lat="49.93263" lon="1.09863">
        <ele>54.45</ele>
        <time>2020-06-18T13:18:37Z</time>
      </trkpt>
      <trkpt lat="49.93251" lon="1.09889">
        <ele>55.89</ele>
        <time>2020-06-18T13:18:57Z</time>
      </trkpt>
      <trkpt lat="49.93252" lon="1.09887">
        <ele>55.89</ele>
        <time>2020-06-18T13:19:06Z</time>
      </trkpt>
      <trkpt lat="49.93253" lon="1.09905">
        <ele>55.89</ele>
        <time>2020-06-18T13:19:19Z</time>
      </trkpt>
      <trkpt lat="49.93265" lon="1.09927">
        <ele>54.45</ele>
        <time>2020-06-18T13:19:36Z</time>
      </trkpt>
      <trkpt lat="49.93263" lon="1.09961">
        <ele>54.45</ele>
        <time>2020-06-18T13:19:55Z</time>
      </trkpt>
      <trkpt lat="49.93252" lon="1.09984">
        <ele>54.45</ele>
        <time>2020-06-18T13:20:11Z</time>
      </trkpt>
      <trkpt lat="49.93253" lon="1.10003">
        <ele>54.45</ele>
        <time>2020-06-18T13:20:22Z</time>
      </trkpt>
      <trkpt lat="49.93255" lon="1.10011">
        <ele>54.45</ele>
        <time>2020-06-18T13:20:26Z</time>
      </trkpt>
      <trkpt lat="49.93269" lon="1.10034">
        <ele>54.45</ele>
        <time>2020-06-18T13:20:43Z</time>
      </trkpt>
      <trkpt lat="49.9328" lon="1.10054">
        <ele>54.45</ele>
        <time>2020-06-18T13:20:57Z</time>
      </trkpt>
      <trkpt lat="49.93284" lon="1.10057">
        <ele>54.45</ele>
        <time>2020-06-18T13:21:01Z</time>
      </trkpt>
      <trkpt lat="49.93304" lon="1.10059">
        <ele>53.97</ele>
        <time>2020-06-18T13:21:19Z</time>
      </trkpt>
      <trkpt lat="49.93317" lon="1.10081">
        <ele>53.97</ele>
        <time>2020-06-18T13:21:36Z</time>
      </trkpt>
      <trkpt lat="49.93324" lon="1.10094">
        <ele>53.97</ele>
        <time>2020-06-18T13:21:45Z</time>
      </trkpt>
      <trkpt lat="49.93319" lon="1.10109">
        <ele>53.97</ele>
        <time>2020-06-18T13:21:55Z</time>
      </trkpt>
      <trkpt lat="49.93303" lon="1.10121">
        <ele>53.97</ele>
        <time>2020-06-18T13:22:12Z</time>
      </trkpt>
      <trkpt lat="49.933" lon="1.10123">
        <ele>55.41</ele>
        <time>2020-06-18T13:22:14Z</time>
      </trkpt>
      <trkpt lat="49.93293" lon="1.10131">
        <ele>55.41</ele>
        <time>2020-06-18T13:22:22Z</time>
      </trkpt>
      <trkpt lat="49.93277" lon="1.10147">
        <ele>55.89</ele>
        <time>2020-06-18T13:22:39Z</time>
      </trkpt>
      <trkpt lat="49.93276" lon="1.10155">
        <ele>55.89</ele>
        <time>2020-06-18T13:22:44Z</time>
      </trkpt>
      <trkpt lat="49.93274" lon="1.10164">
        <ele>56.37</ele>
        <time>2020-06-18T13:22:49Z</time>
      </trkpt>
      <trkpt lat="49.93268" lon="1.10195">
        <ele>56.37</ele>
        <time>2020-06-18T13:23:06Z</time>
      </trkpt>
      <trkpt lat="49.93261" lon="1.10214">
        <ele>56.37</ele>
        <time>2020-06-18T13:23:19Z</time>
      </trkpt>
      <trkpt lat="49.93256" lon="1.1023">
        <ele>56.86</ele>
        <time>2020-06-18T13:23:29Z</time>
      </trkpt>
      <trkpt lat="49.93256" lon="1.10252">
        <ele>57.34</ele>
        <time>2020-06-18T13:23:45Z</time>
      </trkpt>
      <trkpt lat="49.93255" lon="1.10274">
        <ele>57.34</ele>
        <time>2020-06-18T13:23:58Z</time>
      </trkpt>
      <trkpt lat="49.93252" lon="1.10266">
        <ele>57.34</ele>
        <time>2020-06-18T13:24:14Z</time>
      </trkpt>
      <trkpt lat="49.93253" lon="1.1027">
        <ele>58.3</ele>
        <time>2020-06-18T13:24:39Z</time>
      </trkpt>
      <trkpt lat="49.93247" lon="1.10292">
        <ele>58.3</ele>
        <time>2020-06-18T13:24:55Z</time>
      </trkpt>
      <trkpt lat="49.93241" lon="1.10297">
        <ele>58.78</ele>
        <time>2020-06-18T13:25:08Z</time>
      </trkpt>
      <trkpt lat="49.93237" lon="1.10288">
        <ele>58.78</ele>
        <time>2020-06-18T13:25:15Z</time>
      </trkpt>
      <trkpt lat="49.93246" lon="1.10318">
        <ele>58.78</ele>
        <time>2020-06-18T13:25:34Z</time>
      </trkpt>
      <trkpt lat="49.93254" lon="1.10342">
        <ele>58.78</ele>
        <time>2020-06-18T13:25:49Z</time>
      </trkpt>
      <trkpt lat="49.93256" lon="1.10361">
        <ele>58.78</ele>
        <time>2020-06-18T13:26:01Z</time>
      </trkpt>
      <trkpt lat="49.93256" lon="1.1038">
        <ele>58.78</ele>
        <time>2020-06-18T13:26:12Z</time>
      </trkpt>
      <trkpt lat="49.93255" lon="1.10387">
        <ele>58.78</ele>
        <time>2020-06-18T13:26:18Z</time>
      </trkpt>
      <trkpt lat="49.93258" lon="1.10417">
        <ele>58.78</ele>
        <time>2020-06-18T13:26:35Z</time>
      </trkpt>
      <trkpt lat="49.93257" lon="1.10442">
        <ele>58.78</ele>
        <time>2020-06-18T13:26:46Z</time>
      </trkpt>
      <trkpt lat="49.93252" lon="1.10467">
        <ele>59.74</ele>
        <time>2020-06-18T13:27:01Z</time>
      </trkpt>
      <trkpt lat="49.93249" lon="1.1049">
        <ele>59.74</ele>
        <time>2020-06-18T13:27:15Z</time>
      </trkpt>
      <trkpt lat="49.93242" lon="1.1052">
        <ele>59.74</ele>
        <time>2020-06-18T13:27:32Z</time>
      </trkpt>
      <trkpt lat="49.93237" lon="1.1055">
        <ele>60.22</ele>
        <time>2020-06-18T13:27:48Z</time>
      </trkpt>
      <trkpt lat="49.93242" lon="1.10564">
        <ele>60.22</ele>
        <time>2020-06-18T13:27:58Z</time>
      </trkpt>
      <trkpt lat="49.93261" lon="1.10579">
        <ele>60.22</ele>
        <time>2020-06-18T13:28:17Z</time>
      </trkpt>
      <trkpt lat="49.93271" lon="1.10583">
        <ele>60.22</ele>
        <time>2020-06-18T13:28:26Z</time>
      </trkpt>
      <trkpt lat="49.93278" lon="1.10607">
        <ele>60.22</ele>
        <time>2020-06-18T13:28:40Z</time>
      </trkpt>
      <trkpt lat="49.93276" lon="1.10639">
        <ele>60.22</ele>
        <time>2020-06-18T13:28:58Z</time>
      </trkpt>
      <trkpt lat="49.93272" lon="1.10671">
        <ele>61.18</ele>
        <time>2020-06-18T13:29:16Z</time>
      </trkpt>
      <trkpt lat="49.93276" lon="1.10689">
        <ele>61.18</ele>
        <time>2020-06-18T13:29:28Z</time>
      </trkpt>
      <trkpt lat="49.93293" lon="1.10706">
        <ele>59.74</ele>
        <time>2020-06-18T13:29:46Z</time>
      </trkpt>
      <trkpt lat="49.9331" lon="1.10716">
        <ele>60.22</ele>
        <time>2020-06-18T13:30:02Z</time>
      </trkpt>
      <trkpt lat="49.93329" lon="1.10725">
        <ele>59.74</ele>
        <time>2020-06-18T13:30:20Z</time>
      </trkpt>
      <trkpt lat="49.93337" lon="1.10732">
        <ele>59.74</ele>
        <time>2020-06-18T13:30:30Z</time>
      </trkpt>
      <trkpt lat="49.93329" lon="1.10763">
        <ele>59.74</ele>
        <time>2020-06-18T13:30:48Z</time>
      </trkpt>
      <trkpt lat="49.93313" lon="1.10801">
        <ele>59.74</ele>
        <time>2020-06-18T13:31:11Z</time>
      </trkpt>
      <trkpt lat="49.93303" lon="1.10829">
        <ele>61.66</ele>
        <time>2020-06-18T13:31:29Z</time>
      </trkpt>
      <trkpt lat="49.93295" lon="1.10849">
        <ele>62.14</ele>
        <time>2020-06-18T13:31:42Z</time>
      </trkpt>
      <trkpt lat="49.93281" lon="1.10882">
        <ele>62.62</ele>
        <time>2020-06-18T13:32:02Z</time>
      </trkpt>
      <trkpt lat="49.93268" lon="1.10912">
        <ele>63.1</ele>
        <time>2020-06-18T13:32:21Z</time>
      </trkpt>
      <trkpt lat="49.93257" lon="1.10941">
        <ele>63.58</ele>
        <time>2020-06-18T13:32:39Z</time>
      </trkpt>
      <trkpt lat="49.93241" lon="1.10974">
        <ele>63.58</ele>
        <time>2020-06-18T13:33:00Z</time>
      </trkpt>
      <trkpt lat="49.93224" lon="1.11012">
        <ele>64.07</ele>
        <time>2020-06-18T13:33:24Z</time>
      </trkpt>
      <trkpt lat="49.93211" lon="1.1104">
        <ele>64.55</ele>
        <time>2020-06-18T13:33:43Z</time>
      </trkpt>
      <trkpt lat="49.93196" lon="1.1107">
        <ele>65.03</ele>
        <time>2020-06-18T13:34:02Z</time>
      </trkpt>
      <trkpt lat="49.9318" lon="1.11102">
        <ele>65.03</ele>
        <time>2020-06-18T13:34:24Z</time>
      </trkpt>
      <trkpt lat="49.93165" lon="1.11134">
        <ele>65.51</ele>
        <time>2020-06-18T13:34:46Z</time>
      </trkpt>
      <trkpt lat="49.93152" lon="1.11163">
        <ele>65.99</ele>
        <time>2020-06-18T13:35:06Z</time>
      </trkpt>
      <trkpt lat="49.93146" lon="1.11167">
        <ele>65.99</ele>
        <time>2020-06-18T13:35:15Z</time>
      </trkpt>
      <trkpt lat="49.9314" lon="1.11164">
        <ele>66.47</ele>
        <time>2020-06-18T13:35:21Z</time>
      </trkpt>
      <trkpt lat="49.93139" lon="1.11169">
        <ele>66.47</ele>
        <time>2020-06-18T13:35:25Z</time>
      </trkpt>
      <trkpt lat="49.9316" lon="1.11171">
        <ele>66.47</ele>
        <time>2020-06-18T13:35:44Z</time>
      </trkpt>
      <trkpt lat="49.93168" lon="1.11196">
        <ele>66.47</ele>
        <time>2020-06-18T13:36:00Z</time>
      </trkpt>
      <trkpt lat="49.93168" lon="1.11218">
        <ele>66.47</ele>
        <time>2020-06-18T13:36:12Z</time>
      </trkpt>
      <trkpt lat="49.93177" lon="1.11241">
        <ele>66.47</ele>
        <time>2020-06-18T13:36:27Z</time>
      </trkpt>
      <trkpt lat="49.93191" lon="1.11267">
        <ele>65.51</ele>
        <time>2020-06-18T13:36:46Z</time>
      </trkpt>
      <trkpt lat="49.9321" lon="1.11297">
        <ele>65.51</ele>
        <time>2020-06-18T13:37:08Z</time>
      </trkpt>
      <trkpt lat="49.93226" lon="1.11323">
        <ele>64.55</ele>
        <time>2020-06-18T13:37:27Z</time>
      </trkpt>
      <trkpt lat="49.93245" lon="1.11347">
        <ele>63.58</ele>
        <time>2020-06-18T13:37:46Z</time>
      </trkpt>
      <trkpt lat="49.93265" lon="1.11373">
        <ele>63.1</ele>
        <time>2020-06-18T13:38:07Z</time>
      </trkpt>
      <trkpt lat="49.93281" lon="1.11391">
        <ele>62.62</ele>
        <time>2020-06-18T13:38:23Z</time>
      </trkpt>
      <trkpt lat="49.93302" lon="1.11411">
        <ele>61.18</ele>
        <time>2020-06-18T13:38:42Z</time>
      </trkpt>
      <trkpt lat="49.93323" lon="1.11432">
        <ele>60.22</ele>
        <time>2020-06-18T13:39:02Z</time>
      </trkpt>
      <trkpt lat="49.93342" lon="1.11452">
        <ele>60.7</ele>
        <time>2020-06-18T13:39:21Z</time>
      </trkpt>
      <trkpt lat="49.93361" lon="1.11478">
        <ele>57.82</ele>
        <time>2020-06-18T13:39:42Z</time>
      </trkpt>
      <trkpt lat="49.93374" lon="1.11509">
        <ele>56.37</ele>
        <time>2020-06-18T13:40:01Z</time>
      </trkpt>
      <trkpt lat="49.93385" lon="1.11541">
        <ele>53.49</ele>
        <time>2020-06-18T13:40:21Z</time>
      </trkpt>
      <trkpt lat="49.93395" lon="1.11567">
        <ele>50.61</ele>
        <time>2020-06-18T13:40:37Z</time>
      </trkpt>
      <trkpt lat="49.9341" lon="1.11592">
        <ele>47.72</ele>
        <time>2020-06-18T13:40:56Z</time>
      </trkpt>
      <trkpt lat="49.9343" lon="1.11616">
        <ele>45.8</ele>
        <time>2020-06-18T13:41:17Z</time>
      </trkpt>
      <trkpt lat="49.93435" lon="1.11623">
        <ele>45.8</ele>
        <time>2020-06-18T13:41:23Z</time>
      </trkpt>
      <trkpt lat="49.93452" lon="1.1165">
        <ele>44.36</ele>
        <time>2020-06-18T13:41:44Z</time>
      </trkpt>
      <trkpt lat="49.93472" lon="1.11675">
        <ele>42.92</ele>
        <time>2020-06-18T13:42:06Z</time>
      </trkpt>
      <trkpt lat="49.93479" lon="1.11678">
        <ele>41.47</ele>
        <time>2020-06-18T13:42:14Z</time>
      </trkpt>
      <trkpt lat="49.93497" lon="1.1167">
        <ele>38.59</ele>
        <time>2020-06-18T13:42:32Z</time>
      </trkpt>
      <trkpt lat="49.93515" lon="1.11663">
        <ele>35.23</ele>
        <time>2020-06-18T13:42:49Z</time>
      </trkpt>
      <trkpt lat="49.93539" lon="1.11658">
        <ele>31.86</ele>
        <time>2020-06-18T13:43:10Z</time>
      </trkpt>
      <trkpt lat="49.93559" lon="1.11663">
        <ele>29.94</ele>
        <time>2020-06-18T13:43:27Z</time>
      </trkpt>
      <trkpt lat="49.93574" lon="1.11684">
        <ele>27.53</ele>
        <time>2020-06-18T13:43:45Z</time>
      </trkpt>
      <trkpt lat="49.93576" lon="1.11692">
        <ele>27.53</ele>
        <time>2020-06-18T13:43:49Z</time>
      </trkpt>
      <trkpt lat="49.93577" lon="1.11726">
        <ele>27.53</ele>
        <time>2020-06-18T13:44:06Z</time>
      </trkpt>
      <trkpt lat="49.93578" lon="1.11755">
        <ele>27.05</ele>
        <time>2020-06-18T13:44:21Z</time>
      </trkpt>
      <trkpt lat="49.93579" lon="1.11764">
        <ele>26.57</ele>
        <time>2020-06-18T13:44:26Z</time>
      </trkpt>
      <trkpt lat="49.93592" lon="1.11792">
        <ele>25.61</ele>
        <time>2020-06-18T13:44:45Z</time>
      </trkpt>
      <trkpt lat="49.9361" lon="1.11805">
        <ele>25.13</ele>
        <time>2020-06-18T13:45:02Z</time>
      </trkpt>
      <trkpt lat="49.93622" lon="1.11824">
        <ele>24.65</ele>
        <time>2020-06-18T13:45:17Z</time>
      </trkpt>
      <trkpt lat="49.93629" lon="1.11836">
        <ele>24.65</ele>
        <time>2020-06-18T13:45:27Z</time>
      </trkpt>
      <trkpt lat="49.93638" lon="1.11855">
        <ele>26.09</ele>
        <time>2020-06-18T13:45:39Z</time>
      </trkpt>
      <trkpt lat="49.93639" lon="1.11858">
        <ele>26.09</ele>
        <time>2020-06-18T13:45:41Z</time>
      </trkpt>
      <trkpt lat="49.93642" lon="1.11868">
        <ele>26.09</ele>
        <time>2020-06-18T13:45:47Z</time>
      </trkpt>
      <trkpt lat="49.93648" lon="1.1189">
        <ele>26.57</ele>
        <time>2020-06-18T13:46:00Z</time>
      </trkpt>
      <trkpt lat="49.93651" lon="1.119">
        <ele>26.57</ele>
        <time>2020-06-18T13:46:06Z</time>
      </trkpt>
      <trkpt lat="49.93654" lon="1.11904">
        <ele>26.57</ele>
        <time>2020-06-18T13:46:10Z</time>
      </trkpt>
      <trkpt lat="49.93655" lon="1.11912">
        <ele>26.57</ele>
        <time>2020-06-18T13:46:14Z</time>
      </trkpt>
      <trkpt lat="49.93656" lon="1.11927">
        <ele>27.05</ele>
        <time>2020-06-18T13:46:21Z</time>
      </trkpt>
      <trkpt lat="49.93658" lon="1.11935">
        <ele>27.05</ele>
        <time>2020-06-18T13:46:26Z</time>
      </trkpt>
      <trkpt lat="49.93665" lon="1.11967">
        <ele>27.05</ele>
        <time>2020-06-18T13:46:43Z</time>
      </trkpt>
      <trkpt lat="49.93673" lon="1.11989">
        <ele>27.05</ele>
        <time>2020-06-18T13:46:57Z</time>
      </trkpt>
      <trkpt lat="49.93684" lon="1.11991">
        <ele>25.61</ele>
        <time>2020-06-18T13:47:06Z</time>
      </trkpt>
      <trkpt lat="49.93701" lon="1.11997">
        <ele>25.13</ele>
        <time>2020-06-18T13:47:20Z</time>
      </trkpt>
      <trkpt lat="49.9371" lon="1.12006">
        <ele>23.69</ele>
        <time>2020-06-18T13:47:30Z</time>
      </trkpt>
      <trkpt lat="49.9371" lon="1.12012">
        <ele>23.69</ele>
        <time>2020-06-18T13:47:35Z</time>
      </trkpt>
      <trkpt lat="49.9371" lon="1.12017">
        <ele>23.69</ele>
        <time>2020-06-18T13:47:38Z</time>
      </trkpt>
      <trkpt lat="49.93709" lon="1.12024">
        <ele>23.69</ele>
        <time>2020-06-18T13:47:41Z</time>
      </trkpt>
      <trkpt lat="49.93706" lon="1.12037">
        <ele>23.69</ele>
        <time>2020-06-18T13:47:48Z</time>
      </trkpt>
      <trkpt lat="49.93693" lon="1.12046">
        <ele>25.13</ele>
        <time>2020-06-18T13:48:04Z</time>
      </trkpt>
      <trkpt lat="49.93682" lon="1.12055">
        <ele>26.09</ele>
        <time>2020-06-18T13:48:13Z</time>
      </trkpt>
      <trkpt lat="49.93667" lon="1.12061">
        <ele>27.53</ele>
        <time>2020-06-18T13:48:27Z</time>
      </trkpt>
      <trkpt lat="49.93658" lon="1.12066">
        <ele>28.02</ele>
        <time>2020-06-18T13:48:35Z</time>
      </trkpt>
      <trkpt lat="49.93646" lon="1.12088">
        <ele>29.94</ele>
        <time>2020-06-18T13:48:52Z</time>
      </trkpt>
      <trkpt lat="49.93645" lon="1.12109">
        <ele>30.9</ele>
        <time>2020-06-18T13:49:05Z</time>
      </trkpt>
      <trkpt lat="49.93642" lon="1.12128">
        <ele>32.34</ele>
        <time>2020-06-18T13:49:14Z</time>
      </trkpt>
      <trkpt lat="49.93645" lon="1.12152">
        <ele>33.78</ele>
        <time>2020-06-18T13:49:29Z</time>
      </trkpt>
      <trkpt lat="49.93647" lon="1.12184">
        <ele>35.23</ele>
        <time>2020-06-18T13:49:45Z</time>
      </trkpt>
      <trkpt lat="49.93648" lon="1.12198">
        <ele>36.67</ele>
        <time>2020-06-18T13:49:53Z</time>
      </trkpt>
      <trkpt lat="49.93646" lon="1.1222">
        <ele>37.63</ele>
        <time>2020-06-18T13:50:08Z</time>
      </trkpt>
      <trkpt lat="49.93639" lon="1.12242">
        <ele>38.59</ele>
        <time>2020-06-18T13:50:23Z</time>
      </trkpt>
      <trkpt lat="49.93633" lon="1.12251">
        <ele>42.4</ele>
      </trkpt>
      <trkpt lat="49.93642" lon="1.12261">
        <ele>41.7</ele>
      </trkpt>
      <trkpt lat="49.93648" lon="1.12318">
        <ele>41.4</ele>
      </trkpt>
      <trkpt lat="49.93652" lon="1.12403">
        <ele>42</ele>
      </trkpt>
      <trkpt lat="49.93653" lon="1.12417">
        <ele>42.6</ele>
      </trkpt>
      <trkpt lat="49.93659" lon="1.12429">
        <ele>42.6</ele>
      </trkpt>
      <trkpt lat="49.93672" lon="1.12431">
        <ele>31.86</ele>
        <time>2020-06-18T13:54:35Z</time>
      </trkpt>
      <trkpt lat="49.93689" lon="1.12425">
        <ele>29.94</ele>
        <time>2020-06-18T13:54:54Z</time>
      </trkpt>
      <trkpt lat="49.93694" lon="1.12423">
        <ele>29.94</ele>
        <time>2020-06-18T13:55:01Z</time>
      </trkpt>
      <trkpt lat="49.93708" lon="1.12419">
        <ele>28.5</ele>
        <time>2020-06-18T13:55:15Z</time>
      </trkpt>
      <trkpt lat="49.93724" lon="1.12414">
        <ele>27.05</ele>
        <time>2020-06-18T13:55:29Z</time>
      </trkpt>
      <trkpt lat="49.93736" lon="1.1241">
        <ele>26.57</ele>
        <time>2020-06-18T13:55:39Z</time>
      </trkpt>
      <trkpt lat="49.93739" lon="1.1239">
        <ele>26.09</ele>
        <time>2020-06-18T13:55:52Z</time>
      </trkpt>
      <trkpt lat="49.93741" lon="1.12368">
        <ele>25.61</ele>
        <time>2020-06-18T13:56:05Z</time>
      </trkpt>
      <trkpt lat="49.9374" lon="1.12355">
        <ele>25.61</ele>
        <time>2020-06-18T13:56:12Z</time>
      </trkpt>
      <trkpt lat="49.93745" lon="1.12338">
        <ele>25.61</ele>
        <time>2020-06-18T13:56:21Z</time>
      </trkpt>
      <trkpt lat="49.93744" lon="1.12328">
        <ele>25.61</ele>
        <time>2020-06-18T13:56:27Z</time>
      </trkpt>
      <trkpt lat="49.93743" lon="1.12297">
        <ele>25.13</ele>
        <time>2020-06-18T13:56:44Z</time>
      </trkpt>
      <trkpt lat="49.93743" lon="1.12271">
        <ele>24.65</ele>
        <time>2020-06-18T13:56:58Z</time>
      </trkpt>
      <trkpt lat="49.93743" lon="1.12263">
        <ele>24.17</ele>
        <time>2020-06-18T13:57:03Z</time>
      </trkpt>
      <trkpt lat="49.93746" lon="1.12245">
        <ele>24.17</ele>
        <time>2020-06-18T13:57:14Z</time>
      </trkpt>
      <trkpt lat="49.93756" lon="1.12245">
        <ele>25.13</ele>
        <time>2020-06-18T13:57:27Z</time>
      </trkpt>
      <trkpt lat="49.9376" lon="1.12253">
        <ele>25.61</ele>
        <time>2020-06-18T13:57:46Z</time>
      </trkpt>
      <trkpt lat="49.93762" lon="1.1226">
        <ele>26.57</ele>
        <time>2020-06-18T13:57:51Z</time>
      </trkpt>
      <trkpt lat="49.93767" lon="1.12274">
        <ele>27.53</ele>
        <time>2020-06-18T13:58:02Z</time>
      </trkpt>
      <trkpt lat="49.93773" lon="1.12285">
        <ele>28.98</ele>
        <time>2020-06-18T13:58:12Z</time>
      </trkpt>
      <trkpt lat="49.93774" lon="1.12291">
        <ele>29.46</ele>
        <time>2020-06-18T13:58:16Z</time>
      </trkpt>
      <trkpt lat="49.93781" lon="1.12311">
        <ele>31.38</ele>
        <time>2020-06-18T13:58:30Z</time>
      </trkpt>
      <trkpt lat="49.93781" lon="1.12312">
        <ele>31.38</ele>
        <time>2020-06-18T13:58:31Z</time>
      </trkpt>
      <trkpt lat="49.93788" lon="1.12326">
        <ele>33.3</ele>
        <time>2020-06-18T13:58:43Z</time>
      </trkpt>
      <trkpt lat="49.93792" lon="1.12342">
        <ele>34.74</ele>
        <time>2020-06-18T13:58:59Z</time>
      </trkpt>
      <trkpt lat="49.93796" lon="1.12358">
        <ele>36.19</ele>
        <time>2020-06-18T13:59:12Z</time>
      </trkpt>
      <trkpt lat="49.93802" lon="1.1237">
        <ele>38.11</ele>
        <time>2020-06-18T13:59:26Z</time>
      </trkpt>
      <trkpt lat="49.93805" lon="1.12385">
        <ele>39.07</ele>
        <time>2020-06-18T13:59:37Z</time>
      </trkpt>
      <trkpt lat="49.9381" lon="1.12402">
        <ele>41.47</ele>
        <time>2020-06-18T13:59:51Z</time>
      </trkpt>
      <trkpt lat="49.9382" lon="1.12414">
        <ele>42.92</ele>
        <time>2020-06-18T14:00:03Z</time>
      </trkpt>
      <trkpt lat="49.93823" lon="1.12428">
        <ele>44.84</ele>
        <time>2020-06-18T14:00:15Z</time>
      </trkpt>
      <trkpt lat="49.93829" lon="1.12442">
        <ele>46.76</ele>
        <time>2020-06-18T14:00:29Z</time>
      </trkpt>
      <trkpt lat="49.93837" lon="1.12461">
        <ele>49.65</ele>
        <time>2020-06-18T14:00:45Z</time>
      </trkpt>
      <trkpt lat="49.93845" lon="1.12473">
        <ele>51.09</ele>
        <time>2020-06-18T14:00:59Z</time>
      </trkpt>
      <trkpt lat="49.93855" lon="1.12483">
        <ele>53.01</ele>
        <time>2020-06-18T14:01:14Z</time>
      </trkpt>
      <trkpt lat="49.93865" lon="1.12489">
        <ele>55.41</ele>
        <time>2020-06-18T14:01:29Z</time>
      </trkpt>
      <trkpt lat="49.93878" lon="1.12495">
        <ele>57.34</ele>
        <time>2020-06-18T14:01:43Z</time>
      </trkpt>
      <trkpt lat="49.93889" lon="1.12499">
        <ele>60.22</ele>
        <time>2020-06-18T14:01:58Z</time>
      </trkpt>
      <trkpt lat="49.93897" lon="1.12496">
        <ele>62.62</ele>
        <time>2020-06-18T14:02:14Z</time>
      </trkpt>
      <trkpt lat="49.93898" lon="1.12491">
        <ele>63.1</ele>
        <time>2020-06-18T14:02:33Z</time>
      </trkpt>
      <trkpt lat="49.93891" lon="1.12489">
        <ele>63.1</ele>
        <time>2020-06-18T14:02:44Z</time>
      </trkpt>
      <trkpt lat="49.93882" lon="1.12487">
        <ele>61.66</ele>
        <time>2020-06-18T14:02:57Z</time>
      </trkpt>
      <trkpt lat="49.9387" lon="1.12477">
        <ele>60.7</ele>
        <time>2020-06-18T14:03:10Z</time>
      </trkpt>
      <trkpt lat="49.93864" lon="1.12463">
        <ele>60.7</ele>
        <time>2020-06-18T14:03:18Z</time>
      </trkpt>
      <trkpt lat="49.93862" lon="1.12456">
        <ele>60.7</ele>
        <time>2020-06-18T14:03:22Z</time>
      </trkpt>
      <trkpt lat="49.93857" lon="1.12432">
        <ele>60.7</ele>
        <time>2020-06-18T14:03:38Z</time>
      </trkpt>
      <trkpt lat="49.93856" lon="1.12423">
        <ele>62.14</ele>
        <time>2020-06-18T14:03:43Z</time>
      </trkpt>
      <trkpt lat="49.93853" lon="1.12397">
        <ele>61.66</ele>
        <time>2020-06-18T14:03:59Z</time>
      </trkpt>
      <trkpt lat="49.93854" lon="1.12397">
        <ele>61.18</ele>
        <time>2020-06-18T14:04:19Z</time>
      </trkpt>
      <trkpt lat="49.93853" lon="1.12394">
        <ele>61.66</ele>
        <time>2020-06-18T14:04:34Z</time>
      </trkpt>
      <trkpt lat="49.93852" lon="1.12389">
        <ele>62.62</ele>
        <time>2020-06-18T14:04:46Z</time>
      </trkpt>
      <trkpt lat="49.9385" lon="1.12363">
        <ele>62.62</ele>
        <time>2020-06-18T14:05:02Z</time>
      </trkpt>
      <trkpt lat="49.93846" lon="1.12345">
        <ele>62.62</ele>
        <time>2020-06-18T14:05:15Z</time>
      </trkpt>
      <trkpt lat="49.93843" lon="1.1232">
        <ele>62.62</ele>
        <time>2020-06-18T14:05:30Z</time>
      </trkpt>
      <trkpt lat="49.93841" lon="1.12309">
        <ele>62.62</ele>
        <time>2020-06-18T14:05:36Z</time>
      </trkpt>
      <trkpt lat="49.93834" lon="1.12284">
        <ele>60.7</ele>
        <time>2020-06-18T14:05:54Z</time>
      </trkpt>
      <trkpt lat="49.93829" lon="1.1226">
        <ele>59.74</ele>
        <time>2020-06-18T14:06:10Z</time>
      </trkpt>
      <trkpt lat="49.93824" lon="1.12235">
        <ele>58.78</ele>
        <time>2020-06-18T14:06:26Z</time>
      </trkpt>
      <trkpt lat="49.93822" lon="1.12212">
        <ele>58.3</ele>
        <time>2020-06-18T14:06:40Z</time>
      </trkpt>
      <trkpt lat="49.93823" lon="1.12191">
        <ele>58.3</ele>
        <time>2020-06-18T14:06:56Z</time>
      </trkpt>
      <trkpt lat="49.93823" lon="1.12169">
        <ele>57.82</ele>
        <time>2020-06-18T14:07:09Z</time>
      </trkpt>
      <trkpt lat="49.93822" lon="1.1216">
        <ele>57.82</ele>
        <time>2020-06-18T14:07:14Z</time>
      </trkpt>
      <trkpt lat="49.93822" lon="1.12138">
        <ele>57.82</ele>
        <time>2020-06-18T14:07:29Z</time>
      </trkpt>
      <trkpt lat="49.93822" lon="1.12112">
        <ele>57.82</ele>
        <time>2020-06-18T14:07:44Z</time>
      </trkpt>
      <trkpt lat="49.93822" lon="1.12095">
        <ele>57.82</ele>
        <time>2020-06-18T14:07:53Z</time>
      </trkpt>
      <trkpt lat="49.93823" lon="1.12071">
        <ele>57.82</ele>
        <time>2020-06-18T14:08:08Z</time>
      </trkpt>
      <trkpt lat="49.93822" lon="1.12045">
        <ele>57.82</ele>
        <time>2020-06-18T14:08:24Z</time>
      </trkpt>
      <trkpt lat="49.93822" lon="1.12017">
        <ele>57.82</ele>
        <time>2020-06-18T14:08:39Z</time>
      </trkpt>
      <trkpt lat="49.93822" lon="1.12013">
        <ele>58.78</ele>
        <time>2020-06-18T14:08:41Z</time>
      </trkpt>
      <trkpt lat="49.93823" lon="1.11986">
        <ele>58.78</ele>
        <time>2020-06-18T14:08:57Z</time>
      </trkpt>
      <trkpt lat="49.93822" lon="1.11971">
        <ele>58.78</ele>
        <time>2020-06-18T14:09:06Z</time>
      </trkpt>
      <trkpt lat="49.93822" lon="1.11941">
        <ele>59.26</ele>
        <time>2020-06-18T14:09:23Z</time>
      </trkpt>
      <trkpt lat="49.93821" lon="1.11936">
        <ele>59.26</ele>
        <time>2020-06-18T14:09:26Z</time>
      </trkpt>
      <trkpt lat="49.93822" lon="1.11914">
        <ele>59.26</ele>
        <time>2020-06-18T14:09:39Z</time>
      </trkpt>
      <trkpt lat="49.93822" lon="1.11904">
        <ele>59.26</ele>
        <time>2020-06-18T14:09:45Z</time>
      </trkpt>
      <trkpt lat="49.93824" lon="1.11879">
        <ele>59.26</ele>
        <time>2020-06-18T14:10:00Z</time>
      </trkpt>
      <trkpt lat="49.93828" lon="1.11853">
        <ele>59.74</ele>
        <time>2020-06-18T14:10:16Z</time>
      </trkpt>
      <trkpt lat="49.93832" lon="1.11824">
        <ele>58.78</ele>
        <time>2020-06-18T14:10:34Z</time>
      </trkpt>
      <trkpt lat="49.93833" lon="1.11814">
        <ele>58.3</ele>
        <time>2020-06-18T14:10:48Z</time>
      </trkpt>
      <trkpt lat="49.93833" lon="1.11806">
        <ele>58.3</ele>
        <time>2020-06-18T14:10:55Z</time>
      </trkpt>
      <trkpt lat="49.93836" lon="1.11786">
        <ele>59.26</ele>
        <time>2020-06-18T14:11:08Z</time>
      </trkpt>
      <trkpt lat="49.93837" lon="1.11783">
        <ele>59.26</ele>
        <time>2020-06-18T14:11:10Z</time>
      </trkpt>
      <trkpt lat="49.9384" lon="1.11755">
        <ele>59.74</ele>
        <time>2020-06-18T14:11:27Z</time>
      </trkpt>
      <trkpt lat="49.9384" lon="1.11746">
        <ele>59.74</ele>
        <time>2020-06-18T14:11:32Z</time>
      </trkpt>
      <trkpt lat="49.93842" lon="1.11723">
        <ele>59.74</ele>
        <time>2020-06-18T14:11:47Z</time>
      </trkpt>
      <trkpt lat="49.93845" lon="1.11699">
        <ele>60.22</ele>
        <time>2020-06-18T14:12:02Z</time>
      </trkpt>
      <trkpt lat="49.93847" lon="1.11683">
        <ele>60.22</ele>
        <time>2020-06-18T14:12:17Z</time>
      </trkpt>
      <trkpt lat="49.93847" lon="1.11683">
        <ele>60.22</ele>
        <time>2020-06-18T14:12:38Z</time>
      </trkpt>
      <trkpt lat="49.93849" lon="1.11675">
        <ele>60.22</ele>
        <time>2020-06-18T14:12:55Z</time>
      </trkpt>
      <trkpt lat="49.93852" lon="1.11648">
        <ele>60.22</ele>
        <time>2020-06-18T14:13:12Z</time>
      </trkpt>
      <trkpt lat="49.93856" lon="1.1162">
        <ele>60.22</ele>
        <time>2020-06-18T14:13:30Z</time>
      </trkpt>
      <trkpt lat="49.93855" lon="1.11602">
        <ele>57.82</ele>
        <time>2020-06-18T14:13:46Z</time>
      </trkpt>
      <trkpt lat="49.93852" lon="1.11598">
        <ele>56.37</ele>
        <time>2020-06-18T14:13:59Z</time>
      </trkpt>
      <trkpt lat="49.93848" lon="1.11592">
        <ele>54.45</ele>
        <time>2020-06-18T14:14:12Z</time>
      </trkpt>
      <trkpt lat="49.9384" lon="1.11591">
        <ele>53.49</ele>
        <time>2020-06-18T14:14:27Z</time>
      </trkpt>
      <trkpt lat="49.93838" lon="1.1159">
        <ele>53.49</ele>
        <time>2020-06-18T14:14:51Z</time>
      </trkpt>
      <trkpt lat="49.93836" lon="1.11591">
        <ele>53.49</ele>
        <time>2020-06-18T14:15:13Z</time>
      </trkpt>
      <trkpt lat="49.93837" lon="1.11589">
        <ele>53.49</ele>
        <time>2020-06-18T14:15:37Z</time>
      </trkpt>
      <trkpt lat="49.93836" lon="1.11588">
        <ele>53.49</ele>
        <time>2020-06-18T14:16:03Z</time>
      </trkpt>
      <trkpt lat="49.93839" lon="1.11584">
        <ele>53.49</ele>
        <time>2020-06-18T14:16:15Z</time>
      </trkpt>
      <trkpt lat="49.93837" lon="1.11578">
        <ele>53.49</ele>
        <time>2020-06-18T14:16:19Z</time>
      </trkpt>
      <trkpt lat="49.93837" lon="1.11574">
        <ele>53.49</ele>
        <time>2020-06-18T14:16:22Z</time>
      </trkpt>
      <trkpt lat="49.93838" lon="1.11562">
        <ele>53.49</ele>
        <time>2020-06-18T14:16:35Z</time>
      </trkpt>
      <trkpt lat="49.93838" lon="1.1155">
        <ele>53.49</ele>
        <time>2020-06-18T14:16:42Z</time>
      </trkpt>
      <trkpt lat="49.93838" lon="1.11544">
        <ele>53.49</ele>
        <time>2020-06-18T14:16:46Z</time>
      </trkpt>
      <trkpt lat="49.93838" lon="1.11517">
        <ele>53.01</ele>
        <time>2020-06-18T14:17:03Z</time>
      </trkpt>
      <trkpt lat="49.93837" lon="1.11489">
        <ele>52.53</ele>
        <time>2020-06-18T14:17:21Z</time>
      </trkpt>
      <trkpt lat="49.93836" lon="1.11465">
        <ele>50.13</ele>
        <time>2020-06-18T14:17:36Z</time>
      </trkpt>
      <trkpt lat="49.93831" lon="1.11435">
        <ele>48.2</ele>
        <time>2020-06-18T14:17:55Z</time>
      </trkpt>
      <trkpt lat="49.93826" lon="1.11406">
        <ele>45.8</ele>
        <time>2020-06-18T14:18:15Z</time>
      </trkpt>
      <trkpt lat="49.93822" lon="1.11381">
        <ele>44.36</ele>
        <time>2020-06-18T14:18:32Z</time>
      </trkpt>
      <trkpt lat="49.93822" lon="1.11375">
        <ele>43.88</ele>
        <time>2020-06-18T14:18:39Z</time>
      </trkpt>
      <trkpt lat="49.93822" lon="1.11365">
        <ele>43.4</ele>
        <time>2020-06-18T14:18:45Z</time>
      </trkpt>
      <trkpt lat="49.93817" lon="1.11335">
        <ele>40.51</ele>
        <time>2020-06-18T14:19:04Z</time>
      </trkpt>
      <trkpt lat="49.93814" lon="1.11308">
        <ele>38.11</ele>
        <time>2020-06-18T14:19:21Z</time>
      </trkpt>
      <trkpt lat="49.93809" lon="1.11275">
        <ele>35.71</ele>
        <time>2020-06-18T14:19:41Z</time>
      </trkpt>
      <trkpt lat="49.93808" lon="1.11258">
        <ele>34.74</ele>
        <time>2020-06-18T14:19:53Z</time>
      </trkpt>
      <trkpt lat="49.93806" lon="1.1125">
        <ele>34.26</ele>
        <time>2020-06-18T14:19:58Z</time>
      </trkpt>
      <trkpt lat="49.93803" lon="1.11227">
        <ele>32.82</ele>
        <time>2020-06-18T14:20:12Z</time>
      </trkpt>
      <trkpt lat="49.93802" lon="1.11208">
        <ele>30.9</ele>
        <time>2020-06-18T14:20:24Z</time>
      </trkpt>
      <trkpt lat="49.93802" lon="1.112">
        <ele>30.42</ele>
        <time>2020-06-18T14:20:29Z</time>
      </trkpt>
      <trkpt lat="49.93799" lon="1.11173">
        <ele>28.02</ele>
        <time>2020-06-18T14:20:46Z</time>
      </trkpt>
      <trkpt lat="49.93796" lon="1.11147">
        <ele>24.65</ele>
        <time>2020-06-18T14:21:03Z</time>
      </trkpt>
      <trkpt lat="49.93794" lon="1.1112">
        <ele>23.21</ele>
        <time>2020-06-18T14:21:21Z</time>
      </trkpt>
      <trkpt lat="49.93796" lon="1.11093">
        <ele>20.32</ele>
        <time>2020-06-18T14:21:38Z</time>
      </trkpt>
      <trkpt lat="49.93802" lon="1.11068">
        <ele>17.92</ele>
        <time>2020-06-18T14:21:56Z</time>
      </trkpt>
      <trkpt lat="49.93806" lon="1.11042">
        <ele>15.52</ele>
        <time>2020-06-18T14:22:15Z</time>
      </trkpt>
      <trkpt lat="49.93811" lon="1.11019">
        <ele>13.12</ele>
        <time>2020-06-18T14:22:31Z</time>
      </trkpt>
      <trkpt lat="49.93811" lon="1.10992">
        <ele>10.71</ele>
        <time>2020-06-18T14:22:49Z</time>
      </trkpt>
      <trkpt lat="49.938" lon="1.10973">
        <ele>7.83</ele>
        <time>2020-06-18T14:23:06Z</time>
      </trkpt>
      <trkpt lat="49.93789" lon="1.10956">
        <ele>5.42</ele>
        <time>2020-06-18T14:23:23Z</time>
      </trkpt>
      <trkpt lat="49.93782" lon="1.10936">
        <ele>5.42</ele>
        <time>2020-06-18T14:23:40Z</time>
      </trkpt>
      <trkpt lat="49.93782" lon="1.10935">
        <ele>5.42</ele>
        <time>2020-06-18T14:23:52Z</time>
      </trkpt>
      <trkpt lat="49.93782" lon="1.10936">
        <ele>4.94</ele>
        <time>2020-06-18T14:24:07Z</time>
      </trkpt>
      <trkpt lat="49.93782" lon="1.10937">
        <ele>4.94</ele>
        <time>2020-06-18T14:24:30Z</time>
      </trkpt>
      <trkpt lat="49.93783" lon="1.10937">
        <ele>4.46</ele>
        <time>2020-06-18T14:24:49Z</time>
      </trkpt>
      <trkpt lat="49.93782" lon="1.10938">
        <ele>4.46</ele>
        <time>2020-06-18T14:25:05Z</time>
      </trkpt>
      <trkpt lat="49.9378" lon="1.10942">
        <ele>4.46</ele>
        <time>2020-06-18T14:25:16Z</time>
      </trkpt>
      <trkpt lat="49.9378" lon="1.10941">
        <ele>4.46</ele>
        <time>2020-06-18T14:26:00Z</time>
      </trkpt>
      <trkpt lat="49.93779" lon="1.10943">
        <ele>4.46</ele>
        <time>2020-06-18T14:26:33Z</time>
      </trkpt>
      <trkpt lat="49.93781" lon="1.10945">
        <ele>4.46</ele>
        <time>2020-06-18T14:27:12Z</time>
      </trkpt>
      <trkpt lat="49.93781" lon="1.10945">
        <ele>4.46</ele>
        <time>2020-06-18T14:27:52Z</time>
      </trkpt>
      <trkpt lat="49.93782" lon="1.10945">
        <ele>4.46</ele>
        <time>2020-06-18T14:28:18Z</time>
      </trkpt>
      <trkpt lat="49.93781" lon="1.10944">
        <ele>4.46</ele>
        <time>2020-06-18T14:28:54Z</time>
      </trkpt>
      <trkpt lat="49.93778" lon="1.10943">
        <ele>4.46</ele>
        <time>2020-06-18T14:29:23Z</time>
      </trkpt>
      <trkpt lat="49.93779" lon="1.10943">
        <ele>4.94</ele>
        <time>2020-06-18T14:29:56Z</time>
      </trkpt>
      <trkpt lat="49.93779" lon="1.10942">
        <ele>4.94</ele>
        <time>2020-06-18T14:30:30Z</time>
      </trkpt>
      <trkpt lat="49.93778" lon="1.10943">
        <ele>4.94</ele>
        <time>2020-06-18T14:30:59Z</time>
      </trkpt>
      <trkpt lat="49.93778" lon="1.10945">
        <ele>4.94</ele>
        <time>2020-06-18T14:31:33Z</time>
      </trkpt>
      <trkpt lat="49.93779" lon="1.10946">
        <ele>4.94</ele>
        <time>2020-06-18T14:32:08Z</time>
      </trkpt>
      <trkpt lat="49.9378" lon="1.10945">
        <ele>4.94</ele>
        <time>2020-06-18T14:32:34Z</time>
      </trkpt>
      <trkpt lat="49.93781" lon="1.10945">
        <ele>4.94</ele>
        <time>2020-06-18T14:33:03Z</time>
      </trkpt>
      <trkpt lat="49.9378" lon="1.10942">
        <ele>4.94</ele>
        <time>2020-06-18T14:33:34Z</time>
      </trkpt>
      <trkpt lat="49.9378" lon="1.10941">
        <ele>4.94</ele>
        <time>2020-06-18T14:34:07Z</time>
      </trkpt>
      <trkpt lat="49.9378" lon="1.10942">
        <ele>4.94</ele>
        <time>2020-06-18T14:34:34Z</time>
      </trkpt>
      <trkpt lat="49.9378" lon="1.10942">
        <ele>4.94</ele>
        <time>2020-06-18T14:35:16Z</time>
      </trkpt>
      <trkpt lat="49.93779" lon="1.10941">
        <ele>4.94</ele>
        <time>2020-06-18T14:35:46Z</time>
      </trkpt>
      <trkpt lat="49.93778" lon="1.10945">
        <ele>4.94</ele>
        <time>2020-06-18T14:36:22Z</time>
      </trkpt>
      <trkpt lat="49.93777" lon="1.10945">
        <ele>4.94</ele>
        <time>2020-06-18T14:36:49Z</time>
      </trkpt>
      <trkpt lat="49.93776" lon="1.10941">
        <ele>4.94</ele>
        <time>2020-06-18T14:37:34Z</time>
      </trkpt>
      <trkpt lat="49.9378" lon="1.10943">
        <ele>4.94</ele>
        <time>2020-06-18T14:38:18Z</time>
      </trkpt>
      <trkpt lat="49.9378" lon="1.10944">
        <ele>4.94</ele>
        <time>2020-06-18T14:38:57Z</time>
      </trkpt>
      <trkpt lat="49.9378" lon="1.10944">
        <ele>4.94</ele>
        <time>2020-06-18T14:39:15Z</time>
      </trkpt>
      <trkpt lat="49.93779" lon="1.10944">
        <ele>4.94</ele>
        <time>2020-06-18T14:39:35Z</time>
      </trkpt>
      <trkpt lat="49.93781" lon="1.10941">
        <ele>4.94</ele>
        <time>2020-06-18T14:40:11Z</time>
      </trkpt>
      <trkpt lat="49.93779" lon="1.10943">
        <ele>6.39</ele>
        <time>2020-06-18T14:40:25Z</time>
      </trkpt>
      <trkpt lat="49.9378" lon="1.10943">
        <ele>6.39</ele>
        <time>2020-06-18T14:40:45Z</time>
      </trkpt>
      <trkpt lat="49.9378" lon="1.10953">
        <ele>5.91</ele>
        <time>2020-06-18T14:41:05Z</time>
      </trkpt>
      <trkpt lat="49.9378" lon="1.1096">
        <ele>6.39</ele>
        <time>2020-06-18T14:41:10Z</time>
      </trkpt>
      <trkpt lat="49.93778" lon="1.10968">
        <ele>6.39</ele>
        <time>2020-06-18T14:41:16Z</time>
      </trkpt>
      <trkpt lat="49.93765" lon="1.1098">
        <ele>6.87</ele>
        <time>2020-06-18T14:41:35Z</time>
      </trkpt>
      <trkpt lat="49.9376" lon="1.10973">
        <ele>6.87</ele>
        <time>2020-06-18T14:41:58Z</time>
      </trkpt>
      <trkpt lat="49.93754" lon="1.10963">
        <ele>8.79</ele>
        <time>2020-06-18T14:42:11Z</time>
      </trkpt>
      <trkpt lat="49.93752" lon="1.1096">
        <ele>10.23</ele>
        <time>2020-06-18T14:42:25Z</time>
      </trkpt>
      <trkpt lat="49.93749" lon="1.10953">
        <ele>12.15</ele>
        <time>2020-06-18T14:42:44Z</time>
      </trkpt>
      <trkpt lat="49.93739" lon="1.10954">
        <ele>13.6</ele>
        <time>2020-06-18T14:42:58Z</time>
      </trkpt>
      <trkpt lat="49.93726" lon="1.10957">
        <ele>15.52</ele>
        <time>2020-06-18T14:43:13Z</time>
      </trkpt>
      <trkpt lat="49.93715" lon="1.10958">
        <ele>16.48</ele>
        <time>2020-06-18T14:43:27Z</time>
      </trkpt>
      <trkpt lat="49.93705" lon="1.10945">
        <ele>18.4</ele>
        <time>2020-06-18T14:43:42Z</time>
      </trkpt>
      <trkpt lat="49.93698" lon="1.10927">
        <ele>19.84</ele>
        <time>2020-06-18T14:43:58Z</time>
      </trkpt>
      <trkpt lat="49.93689" lon="1.1091">
        <ele>21.29</ele>
        <time>2020-06-18T14:44:13Z</time>
      </trkpt>
      <trkpt lat="49.93685" lon="1.109">
        <ele>22.25</ele>
        <time>2020-06-18T14:44:27Z</time>
      </trkpt>
      <trkpt lat="49.93679" lon="1.10884">
        <ele>23.69</ele>
        <time>2020-06-18T14:44:40Z</time>
      </trkpt>
      <trkpt lat="49.93675" lon="1.10867">
        <ele>24.65</ele>
        <time>2020-06-18T14:44:55Z</time>
      </trkpt>
      <trkpt lat="49.93671" lon="1.10854">
        <ele>26.57</ele>
        <time>2020-06-18T14:45:09Z</time>
      </trkpt>
      <trkpt lat="49.93669" lon="1.10851">
        <ele>26.57</ele>
        <time>2020-06-18T14:45:24Z</time>
      </trkpt>
      <trkpt lat="49.93664" lon="1.10841">
        <ele>28.02</ele>
        <time>2020-06-18T14:45:39Z</time>
      </trkpt>
      <trkpt lat="49.93664" lon="1.10837">
        <ele>28.02</ele>
        <time>2020-06-18T14:45:43Z</time>
      </trkpt>
      <trkpt lat="49.93663" lon="1.10833">
        <ele>28.5</ele>
        <time>2020-06-18T14:45:47Z</time>
      </trkpt>
      <trkpt lat="49.93658" lon="1.10821">
        <ele>29.94</ele>
        <time>2020-06-18T14:45:58Z</time>
      </trkpt>
      <trkpt lat="49.93655" lon="1.10812">
        <ele>30.42</ele>
        <time>2020-06-18T14:46:05Z</time>
      </trkpt>
      <trkpt lat="49.93654" lon="1.10809">
        <ele>31.38</ele>
        <time>2020-06-18T14:46:09Z</time>
      </trkpt>
      <trkpt lat="49.93652" lon="1.10804">
        <ele>32.34</ele>
        <time>2020-06-18T14:46:14Z</time>
      </trkpt>
      <trkpt lat="49.93651" lon="1.10792">
        <ele>34.74</ele>
        <time>2020-06-18T14:46:27Z</time>
      </trkpt>
      <trkpt lat="49.93652" lon="1.10781">
        <ele>36.67</ele>
        <time>2020-06-18T14:46:40Z</time>
      </trkpt>
      <trkpt lat="49.93654" lon="1.10778">
        <ele>36.67</ele>
        <time>2020-06-18T14:46:44Z</time>
      </trkpt>
      <trkpt lat="49.93659" lon="1.10769">
        <ele>36.67</ele>
        <time>2020-06-18T14:46:51Z</time>
      </trkpt>
      <trkpt lat="49.93662" lon="1.10746">
        <ele>37.63</ele>
        <time>2020-06-18T14:47:07Z</time>
      </trkpt>
      <trkpt lat="49.93662" lon="1.10743">
        <ele>38.11</ele>
        <time>2020-06-18T14:47:09Z</time>
      </trkpt>
      <trkpt lat="49.93656" lon="1.10722">
        <ele>39.55</ele>
        <time>2020-06-18T14:47:25Z</time>
      </trkpt>
      <trkpt lat="49.93651" lon="1.10709">
        <ele>40.03</ele>
        <time>2020-06-18T14:47:36Z</time>
      </trkpt>
      <trkpt lat="49.93643" lon="1.10694">
        <ele>40.99</ele>
        <time>2020-06-18T14:47:50Z</time>
      </trkpt>
      <trkpt lat="49.93633" lon="1.10676">
        <ele>41.47</ele>
        <time>2020-06-18T14:48:05Z</time>
      </trkpt>
      <trkpt lat="49.93626" lon="1.10659">
        <ele>42.44</ele>
        <time>2020-06-18T14:48:20Z</time>
      </trkpt>
      <trkpt lat="49.9362" lon="1.10638">
        <ele>43.4</ele>
        <time>2020-06-18T14:48:35Z</time>
      </trkpt>
      <trkpt lat="49.9361" lon="1.10627">
        <ele>43.4</ele>
        <time>2020-06-18T14:48:47Z</time>
      </trkpt>
      <trkpt lat="49.93603" lon="1.10615">
        <ele>44.36</ele>
        <time>2020-06-18T14:49:01Z</time>
      </trkpt>
      <trkpt lat="49.93596" lon="1.10603">
        <ele>45.32</ele>
        <time>2020-06-18T14:49:15Z</time>
      </trkpt>
      <trkpt lat="49.93584" lon="1.10601">
        <ele>46.28</ele>
        <time>2020-06-18T14:49:27Z</time>
      </trkpt>
      <trkpt lat="49.93565" lon="1.10599">
        <ele>47.72</ele>
        <time>2020-06-18T14:49:45Z</time>
      </trkpt>
      <trkpt lat="49.93558" lon="1.10599">
        <ele>48.2</ele>
        <time>2020-06-18T14:49:52Z</time>
      </trkpt>
      <trkpt lat="49.93537" lon="1.106">
        <ele>49.65</ele>
        <time>2020-06-18T14:50:13Z</time>
      </trkpt>
      <trkpt lat="49.93531" lon="1.10594">
        <ele>50.13</ele>
        <time>2020-06-18T14:50:25Z</time>
      </trkpt>
      <trkpt lat="49.9353" lon="1.10589">
        <ele>50.13</ele>
        <time>2020-06-18T14:50:29Z</time>
      </trkpt>
      <trkpt lat="49.93528" lon="1.10567">
        <ele>51.09</ele>
        <time>2020-06-18T14:50:44Z</time>
      </trkpt>
      <trkpt lat="49.93528" lon="1.10539">
        <ele>51.09</ele>
        <time>2020-06-18T14:51:02Z</time>
      </trkpt>
      <trkpt lat="49.93528" lon="1.10509">
        <ele>51.57</ele>
        <time>2020-06-18T14:51:20Z</time>
      </trkpt>
      <trkpt lat="49.93529" lon="1.1048">
        <ele>51.57</ele>
        <time>2020-06-18T14:51:38Z</time>
      </trkpt>
      <trkpt lat="49.93527" lon="1.10452">
        <ele>51.57</ele>
        <time>2020-06-18T14:51:55Z</time>
      </trkpt>
      <trkpt lat="49.93524" lon="1.10423">
        <ele>51.09</ele>
        <time>2020-06-18T14:52:12Z</time>
      </trkpt>
      <trkpt lat="49.93519" lon="1.10393">
        <ele>51.57</ele>
        <time>2020-06-18T14:52:30Z</time>
      </trkpt>
      <trkpt lat="49.9352" lon="1.10361">
        <ele>52.05</ele>
        <time>2020-06-18T14:52:48Z</time>
      </trkpt>
      <trkpt lat="49.93523" lon="1.10327">
        <ele>52.05</ele>
        <time>2020-06-18T14:53:09Z</time>
      </trkpt>
      <trkpt lat="49.93527" lon="1.103">
        <ele>53.01</ele>
        <time>2020-06-18T14:53:24Z</time>
      </trkpt>
      <trkpt lat="49.93528" lon="1.10271">
        <ele>53.01</ele>
        <time>2020-06-18T14:53:41Z</time>
      </trkpt>
      <trkpt lat="49.93523" lon="1.10247">
        <ele>53.97</ele>
        <time>2020-06-18T14:53:57Z</time>
      </trkpt>
      <trkpt lat="49.93513" lon="1.10224">
        <ele>53.97</ele>
        <time>2020-06-18T14:54:13Z</time>
      </trkpt>
      <trkpt lat="49.935" lon="1.10205">
        <ele>54.45</ele>
        <time>2020-06-18T14:54:32Z</time>
      </trkpt>
      <trkpt lat="49.9349" lon="1.10196">
        <ele>54.93</ele>
        <time>2020-06-18T14:54:50Z</time>
      </trkpt>
      <trkpt lat="49.9348" lon="1.10182">
        <ele>54.93</ele>
        <time>2020-06-18T14:55:04Z</time>
      </trkpt>
      <trkpt lat="49.93477" lon="1.10175">
        <ele>54.93</ele>
        <time>2020-06-18T14:55:10Z</time>
      </trkpt>
      <trkpt lat="49.93468" lon="1.10157">
        <ele>53.01</ele>
        <time>2020-06-18T14:55:26Z</time>
      </trkpt>
      <trkpt lat="49.93469" lon="1.10156">
        <ele>52.05</ele>
        <time>2020-06-18T14:55:28Z</time>
      </trkpt>
      <trkpt lat="49.93474" lon="1.10127">
        <ele>51.09</ele>
        <time>2020-06-18T14:55:46Z</time>
      </trkpt>
      <trkpt lat="49.93474" lon="1.10116">
        <ele>51.09</ele>
        <time>2020-06-18T14:56:02Z</time>
      </trkpt>
      <trkpt lat="49.93474" lon="1.10115">
        <ele>51.09</ele>
        <time>2020-06-18T14:56:03Z</time>
      </trkpt>
      <trkpt lat="49.93475" lon="1.1009">
        <ele>51.09</ele>
        <time>2020-06-18T14:56:18Z</time>
      </trkpt>
      <trkpt lat="49.93477" lon="1.10073">
        <ele>51.09</ele>
        <time>2020-06-18T14:56:29Z</time>
      </trkpt>
      <trkpt lat="49.93473" lon="1.10041">
        <ele>50.61</ele>
        <time>2020-06-18T14:56:48Z</time>
      </trkpt>
      <trkpt lat="49.93473" lon="1.10021">
        <ele>50.61</ele>
        <time>2020-06-18T14:57:03Z</time>
      </trkpt>
      <trkpt lat="49.93471" lon="1.09988">
        <ele>50.13</ele>
        <time>2020-06-18T14:57:23Z</time>
      </trkpt>
      <trkpt lat="49.93467" lon="1.0996">
        <ele>49.65</ele>
        <time>2020-06-18T14:57:40Z</time>
      </trkpt>
      <trkpt lat="49.93463" lon="1.09933">
        <ele>49.65</ele>
        <time>2020-06-18T14:57:58Z</time>
      </trkpt>
      <trkpt lat="49.93463" lon="1.09926">
        <ele>49.65</ele>
        <time>2020-06-18T14:58:02Z</time>
      </trkpt>
      <trkpt lat="49.93458" lon="1.09896">
        <ele>49.16</ele>
        <time>2020-06-18T14:58:20Z</time>
      </trkpt>
      <trkpt lat="49.93455" lon="1.0988">
        <ele>49.16</ele>
        <time>2020-06-18T14:58:35Z</time>
      </trkpt>
      <trkpt lat="49.93452" lon="1.09858">
        <ele>49.16</ele>
        <time>2020-06-18T14:58:50Z</time>
      </trkpt>
      <trkpt lat="49.93446" lon="1.09834">
        <ele>48.68</ele>
        <time>2020-06-18T14:59:07Z</time>
      </trkpt>
      <trkpt lat="49.9344" lon="1.09812">
        <ele>48.68</ele>
        <time>2020-06-18T14:59:23Z</time>
      </trkpt>
      <trkpt lat="49.93435" lon="1.09796">
        <ele>48.68</ele>
        <time>2020-06-18T14:59:38Z</time>
      </trkpt>
      <trkpt lat="49.93427" lon="1.09772">
        <ele>48.2</ele>
        <time>2020-06-18T14:59:55Z</time>
      </trkpt>
      <trkpt lat="49.93418" lon="1.09743">
        <ele>48.2</ele>
        <time>2020-06-18T15:00:14Z</time>
      </trkpt>
      <trkpt lat="49.9341" lon="1.09718">
        <ele>48.2</ele>
        <time>2020-06-18T15:00:31Z</time>
      </trkpt>
      <trkpt lat="49.934" lon="1.09693">
        <ele>47.72</ele>
        <time>2020-06-18T15:00:49Z</time>
      </trkpt>
      <trkpt lat="49.93396" lon="1.09682">
        <ele>47.72</ele>
        <time>2020-06-18T15:01:04Z</time>
      </trkpt>
      <trkpt lat="49.93388" lon="1.0966">
        <ele>47.24</ele>
        <time>2020-06-18T15:01:20Z</time>
      </trkpt>
      <trkpt lat="49.93379" lon="1.09641">
        <ele>46.76</ele>
        <time>2020-06-18T15:01:34Z</time>
      </trkpt>
      <trkpt lat="49.93368" lon="1.09612">
        <ele>46.76</ele>
        <time>2020-06-18T15:01:54Z</time>
      </trkpt>
      <trkpt lat="49.93359" lon="1.09582">
        <ele>46.76</ele>
        <time>2020-06-18T15:02:14Z</time>
      </trkpt>
      <trkpt lat="49.93351" lon="1.09548">
        <ele>46.28</ele>
        <time>2020-06-18T15:02:35Z</time>
      </trkpt>
      <trkpt lat="49.93345" lon="1.09525">
        <ele>45.32</ele>
        <time>2020-06-18T15:02:49Z</time>
      </trkpt>
      <trkpt lat="49.93343" lon="1.09498">
        <ele>45.32</ele>
        <time>2020-06-18T15:03:05Z</time>
      </trkpt>
      <trkpt lat="49.93341" lon="1.09469">
        <ele>44.84</ele>
        <time>2020-06-18T15:03:23Z</time>
      </trkpt>
      <trkpt lat="49.93342" lon="1.09463">
        <ele>44.36</ele>
        <time>2020-06-18T15:03:40Z</time>
      </trkpt>
      <trkpt lat="49.93342" lon="1.0946">
        <ele>44.36</ele>
        <time>2020-06-18T15:03:53Z</time>
      </trkpt>
      <trkpt lat="49.9334" lon="1.09437">
        <ele>43.88</ele>
        <time>2020-06-18T15:04:11Z</time>
      </trkpt>
      <trkpt lat="49.93338" lon="1.09441">
        <ele>43.88</ele>
        <time>2020-06-18T15:04:35Z</time>
      </trkpt>
      <trkpt lat="49.93337" lon="1.09437">
        <ele>43.88</ele>
        <time>2020-06-18T15:04:51Z</time>
      </trkpt>
      <trkpt lat="49.9334" lon="1.09402">
        <ele>43.4</ele>
        <time>2020-06-18T15:05:11Z</time>
      </trkpt>
      <trkpt lat="49.93341" lon="1.09371">
        <ele>42.92</ele>
        <time>2020-06-18T15:05:29Z</time>
      </trkpt>
      <trkpt lat="49.93342" lon="1.09343">
        <ele>41.95</ele>
        <time>2020-06-18T15:05:47Z</time>
      </trkpt>
      <trkpt lat="49.93342" lon="1.09324">
        <ele>41.47</ele>
        <time>2020-06-18T15:06:03Z</time>
      </trkpt>
      <trkpt lat="49.93341" lon="1.09297">
        <ele>41.47</ele>
        <time>2020-06-18T15:06:21Z</time>
      </trkpt>
      <trkpt lat="49.93339" lon="1.0928">
        <ele>40.99</ele>
        <time>2020-06-18T15:06:43Z</time>
      </trkpt>
      <trkpt lat="49.93336" lon="1.09251">
        <ele>40.51</ele>
        <time>2020-06-18T15:07:00Z</time>
      </trkpt>
      <trkpt lat="49.9333" lon="1.09224">
        <ele>40.03</ele>
        <time>2020-06-18T15:07:17Z</time>
      </trkpt>
      <trkpt lat="49.93324" lon="1.09211">
        <ele>40.03</ele>
        <time>2020-06-18T15:07:27Z</time>
      </trkpt>
      <trkpt lat="49.93313" lon="1.09189">
        <ele>40.03</ele>
        <time>2020-06-18T15:07:44Z</time>
      </trkpt>
      <trkpt lat="49.93313" lon="1.09185">
        <ele>40.03</ele>
        <time>2020-06-18T15:07:46Z</time>
      </trkpt>
      <trkpt lat="49.93315" lon="1.09157">
        <ele>40.03</ele>
        <time>2020-06-18T15:08:04Z</time>
      </trkpt>
      <trkpt lat="49.93308" lon="1.09129">
        <ele>40.03</ele>
        <time>2020-06-18T15:08:22Z</time>
      </trkpt>
      <trkpt lat="49.93308" lon="1.09122">
        <ele>40.03</ele>
        <time>2020-06-18T15:08:26Z</time>
      </trkpt>
      <trkpt lat="49.93311" lon="1.09094">
        <ele>39.07</ele>
        <time>2020-06-18T15:08:44Z</time>
      </trkpt>
      <trkpt lat="49.93308" lon="1.09062">
        <ele>38.59</ele>
        <time>2020-06-18T15:09:03Z</time>
      </trkpt>
      <trkpt lat="49.93307" lon="1.09032">
        <ele>38.59</ele>
        <time>2020-06-18T15:09:20Z</time>
      </trkpt>
      <trkpt lat="49.93307" lon="1.09002">
        <ele>38.11</ele>
        <time>2020-06-18T15:09:39Z</time>
      </trkpt>
      <trkpt lat="49.93297" lon="1.08978">
        <ele>38.11</ele>
        <time>2020-06-18T15:09:56Z</time>
      </trkpt>
      <trkpt lat="49.9328" lon="1.08964">
        <ele>37.15</ele>
        <time>2020-06-18T15:10:14Z</time>
      </trkpt>
      <trkpt lat="49.93262" lon="1.08957">
        <ele>36.67</ele>
        <time>2020-06-18T15:10:31Z</time>
      </trkpt>
      <trkpt lat="49.93247" lon="1.08944">
        <ele>36.67</ele>
        <time>2020-06-18T15:10:48Z</time>
      </trkpt>
      <trkpt lat="49.93244" lon="1.0894">
        <ele>36.67</ele>
        <time>2020-06-18T15:10:52Z</time>
      </trkpt>
      <trkpt lat="49.93234" lon="1.08926">
        <ele>36.19</ele>
        <time>2020-06-18T15:11:06Z</time>
      </trkpt>
      <trkpt lat="49.93224" lon="1.08895">
        <ele>35.71</ele>
        <time>2020-06-18T15:11:26Z</time>
      </trkpt>
      <trkpt lat="49.93214" lon="1.08868">
        <ele>35.71</ele>
        <time>2020-06-18T15:11:44Z</time>
      </trkpt>
      <trkpt lat="49.93211" lon="1.08861">
        <ele>35.71</ele>
        <time>2020-06-18T15:11:50Z</time>
      </trkpt>
      <trkpt lat="49.93202" lon="1.08855">
        <ele>35.71</ele>
        <time>2020-06-18T15:12:00Z</time>
      </trkpt>
      <trkpt lat="49.93195" lon="1.0886">
        <ele>35.71</ele>
        <time>2020-06-18T15:12:14Z</time>
      </trkpt>
      <trkpt lat="49.93193" lon="1.08866">
        <ele>35.23</ele>
        <time>2020-06-18T15:12:40Z</time>
      </trkpt>
      <trkpt lat="49.93195" lon="1.08871">
        <ele>35.23</ele>
        <time>2020-06-18T15:12:57Z</time>
      </trkpt>
      <trkpt lat="49.93195" lon="1.08872">
        <ele>35.23</ele>
        <time>2020-06-18T15:13:17Z</time>
      </trkpt>
      <trkpt lat="49.93196" lon="1.08867">
        <ele>35.23</ele>
        <time>2020-06-18T15:13:43Z</time>
      </trkpt>
      <trkpt lat="49.93196" lon="1.08875">
        <ele>34.74</ele>
        <time>2020-06-18T15:14:07Z</time>
      </trkpt>
      <trkpt lat="49.93196" lon="1.08882">
        <ele>36.19</ele>
        <time>2020-06-18T15:14:34Z</time>
      </trkpt>
      <trkpt lat="49.93194" lon="1.08876">
        <ele>36.19</ele>
        <time>2020-06-18T15:15:03Z</time>
      </trkpt>
      <trkpt lat="49.93191" lon="1.08861">
        <ele>36.19</ele>
        <time>2020-06-18T15:15:18Z</time>
      </trkpt>
      <trkpt lat="49.9319" lon="1.08843">
        <ele>36.19</ele>
        <time>2020-06-18T15:15:31Z</time>
      </trkpt>
      <trkpt lat="49.93187" lon="1.08846">
        <ele>36.19</ele>
        <time>2020-06-18T15:15:46Z</time>
      </trkpt>
      <trkpt lat="49.93188" lon="1.0883">
        <ele>36.19</ele>
        <time>2020-06-18T15:16:01Z</time>
      </trkpt>
      <trkpt lat="49.93189" lon="1.08823">
        <ele>36.19</ele>
        <time>2020-06-18T15:16:12Z</time>
      </trkpt>
      <trkpt lat="49.93188" lon="1.08809">
        <ele>36.19</ele>
        <time>2020-06-18T15:16:28Z</time>
      </trkpt>
      <trkpt lat="49.93185" lon="1.08807">
        <ele>36.19</ele>
        <time>2020-06-18T15:16:44Z</time>
      </trkpt>
      <trkpt lat="49.93181" lon="1.08806">
        <ele>36.19</ele>
        <time>2020-06-18T15:16:57Z</time>
      </trkpt>
      <trkpt lat="49.93172" lon="1.08808">
        <ele>36.19</ele>
        <time>2020-06-18T15:17:07Z</time>
      </trkpt>
      <trkpt lat="49.93162" lon="1.08812">
        <ele>35.23</ele>
        <time>2020-06-18T15:17:22Z</time>
      </trkpt>
      <trkpt lat="49.93157" lon="1.08814">
        <ele>35.23</ele>
        <time>2020-06-18T15:17:27Z</time>
      </trkpt>
      <trkpt lat="49.9315" lon="1.08826">
        <ele>34.74</ele>
        <time>2020-06-18T15:17:43Z</time>
      </trkpt>
      <trkpt lat="49.93149" lon="1.08826">
        <ele>34.74</ele>
        <time>2020-06-18T15:17:46Z</time>
      </trkpt>
      <trkpt lat="49.93144" lon="1.08825">
        <ele>34.74</ele>
        <time>2020-06-18T15:17:51Z</time>
      </trkpt>
      <trkpt lat="49.93138" lon="1.08812">
        <ele>34.26</ele>
        <time>2020-06-18T15:18:01Z</time>
      </trkpt>
      <trkpt lat="49.93129" lon="1.08787">
        <ele>34.26</ele>
        <time>2020-06-18T15:18:18Z</time>
      </trkpt>
      <trkpt lat="49.93126" lon="1.08784">
        <ele>34.26</ele>
        <time>2020-06-18T15:18:22Z</time>
      </trkpt>
      <trkpt lat="49.93112" lon="1.08762">
        <ele>34.26</ele>
        <time>2020-06-18T15:18:42Z</time>
      </trkpt>
      <trkpt lat="49.93102" lon="1.08751">
        <ele>34.26</ele>
        <time>2020-06-18T15:18:55Z</time>
      </trkpt>
      <trkpt lat="49.93086" lon="1.08762">
        <ele>34.26</ele>
        <time>2020-06-18T15:19:13Z</time>
      </trkpt>
      <trkpt lat="49.93072" lon="1.08762">
        <ele>32.34</ele>
        <time>2020-06-18T15:19:30Z</time>
      </trkpt>
      <trkpt lat="49.93065" lon="1.08754">
        <ele>29.46</ele>
        <time>2020-06-18T15:19:45Z</time>
      </trkpt>
      <trkpt lat="49.93055" lon="1.08751">
        <ele>29.46</ele>
        <time>2020-06-18T15:19:54Z</time>
      </trkpt>
      <trkpt lat="49.93049" lon="1.08745">
        <ele>28.98</ele>
        <time>2020-06-18T15:20:13Z</time>
      </trkpt>
      <trkpt lat="49.93043" lon="1.08746">
        <ele>29.46</ele>
        <time>2020-06-18T15:20:28Z</time>
      </trkpt>
      <trkpt lat="49.93042" lon="1.08746">
        <ele>29.46</ele>
        <time>2020-06-18T15:20:29Z</time>
      </trkpt>
      <trkpt lat="49.93035" lon="1.08748">
        <ele>32.82</ele>
        <time>2020-06-18T15:20:43Z</time>
      </trkpt>
      <trkpt lat="49.93023" lon="1.0875">
        <ele>33.3</ele>
        <time>2020-06-18T15:20:58Z</time>
      </trkpt>
      <trkpt lat="49.93015" lon="1.0876">
        <ele>33.3</ele>
        <time>2020-06-18T15:21:12Z</time>
      </trkpt>
      <trkpt lat="49.93009" lon="1.08755">
        <ele>33.78</ele>
        <time>2020-06-18T15:21:20Z</time>
      </trkpt>
      <trkpt lat="49.93001" lon="1.0875">
        <ele>33.78</ele>
        <time>2020-06-18T15:21:35Z</time>
      </trkpt>
      <trkpt lat="49.92992" lon="1.08747">
        <ele>33.78</ele>
        <time>2020-06-18T15:21:47Z</time>
      </trkpt>
      <trkpt lat="49.92979" lon="1.08738">
        <ele>33.78</ele>
        <time>2020-06-18T15:22:02Z</time>
      </trkpt>
      <trkpt lat="49.92976" lon="1.08737">
        <ele>33.78</ele>
        <time>2020-06-18T15:22:05Z</time>
      </trkpt>
      <trkpt lat="49.9297" lon="1.0873">
        <ele>33.78</ele>
        <time>2020-06-18T15:22:14Z</time>
      </trkpt>
      <trkpt lat="49.92965" lon="1.08709">
        <ele>32.34</ele>
        <time>2020-06-18T15:22:28Z</time>
      </trkpt>
      <trkpt lat="49.92963" lon="1.08706">
        <ele>31.86</ele>
        <time>2020-06-18T15:22:31Z</time>
      </trkpt>
      <trkpt lat="49.92951" lon="1.08688">
        <ele>30.9</ele>
        <time>2020-06-18T15:22:49Z</time>
      </trkpt>
      <trkpt lat="49.9295" lon="1.08689">
        <ele>30.9</ele>
        <time>2020-06-18T15:23:17Z</time>
      </trkpt>
      <trkpt lat="49.92949" lon="1.08687">
        <ele>30.42</ele>
        <time>2020-06-18T15:23:50Z</time>
      </trkpt>
      <trkpt lat="49.9295" lon="1.08687">
        <ele>30.9</ele>
        <time>2020-06-18T15:24:16Z</time>
      </trkpt>
      <trkpt lat="49.92949" lon="1.08686">
        <ele>30.9</ele>
        <time>2020-06-18T15:24:41Z</time>
      </trkpt>
      <trkpt lat="49.92945" lon="1.0869">
        <ele>30.9</ele>
        <time>2020-06-18T15:24:49Z</time>
      </trkpt>
      <trkpt lat="49.92942" lon="1.08692">
        <ele>30.9</ele>
        <time>2020-06-18T15:24:53Z</time>
      </trkpt>
      <trkpt lat="49.92939" lon="1.08697">
        <ele>30.42</ele>
        <time>2020-06-18T15:25:08Z</time>
      </trkpt>
      <trkpt lat="49.92928" lon="1.08706">
        <ele>30.42</ele>
        <time>2020-06-18T15:25:22Z</time>
      </trkpt>
      <trkpt lat="49.92924" lon="1.08711">
        <ele>30.42</ele>
        <time>2020-06-18T15:25:28Z</time>
      </trkpt>
      <trkpt lat="49.92922" lon="1.08712">
        <ele>30.42</ele>
        <time>2020-06-18T15:25:30Z</time>
      </trkpt>
      <trkpt lat="49.92905" lon="1.08722">
        <ele>29.46</ele>
        <time>2020-06-18T15:25:48Z</time>
      </trkpt>
      <trkpt lat="49.92903" lon="1.08721">
        <ele>29.46</ele>
        <time>2020-06-18T15:25:50Z</time>
      </trkpt>
      <trkpt lat="49.92886" lon="1.08721">
        <ele>27.53</ele>
        <time>2020-06-18T15:26:07Z</time>
      </trkpt>
      <trkpt lat="49.92881" lon="1.08715">
        <ele>25.61</ele>
        <time>2020-06-18T15:26:21Z</time>
      </trkpt>
      <trkpt lat="49.92875" lon="1.08699">
        <ele>23.21</ele>
        <time>2020-06-18T15:26:36Z</time>
      </trkpt>
      <trkpt lat="49.92869" lon="1.08688">
        <ele>20.32</ele>
        <time>2020-06-18T15:26:50Z</time>
      </trkpt>
      <trkpt lat="49.92865" lon="1.08681">
        <ele>18.4</ele>
        <time>2020-06-18T15:27:02Z</time>
      </trkpt>
      <trkpt lat="49.92861" lon="1.08672">
        <ele>16.48</ele>
        <time>2020-06-18T15:27:14Z</time>
      </trkpt>
      <trkpt lat="49.92856" lon="1.0866">
        <ele>13.6</ele>
        <time>2020-06-18T15:27:29Z</time>
      </trkpt>
      <trkpt lat="49.92855" lon="1.08644">
        <ele>12.15</ele>
        <time>2020-06-18T15:27:49Z</time>
      </trkpt>
      <trkpt lat="49.92847" lon="1.08637">
        <ele>10.71</ele>
        <time>2020-06-18T15:28:03Z</time>
      </trkpt>
      <trkpt lat="49.92842" lon="1.08639">
        <ele>10.23</ele>
        <time>2020-06-18T15:28:17Z</time>
      </trkpt>
      <trkpt lat="49.92841" lon="1.0864">
        <ele>9.75</ele>
        <time>2020-06-18T15:28:35Z</time>
      </trkpt>
      <trkpt lat="49.92832" lon="1.08646">
        <ele>11.8</ele>
      </trkpt>
      <trkpt lat="49.92832" lon="1.08641">
        <ele>8.79</ele>
        <time>2020-06-18T15:30:30Z</time>
      </trkpt>
      <trkpt lat="49.92833" lon="1.08636">
        <ele>6.39</ele>
        <time>2020-06-18T15:30:44Z</time>
      </trkpt>
      <trkpt lat="49.9283" lon="1.08636">
        <ele>6.39</ele>
        <time>2020-06-18T15:30:59Z</time>
      </trkpt>
      <trkpt lat="49.92826" lon="1.08625">
        <ele>6.39</ele>
        <time>2020-06-18T15:31:12Z</time>
      </trkpt>
      <trkpt lat="49.92823" lon="1.08599">
        <ele>5.42</ele>
        <time>2020-06-18T15:31:28Z</time>
      </trkpt>
      <trkpt lat="49.9282" lon="1.08595">
        <ele>5.42</ele>
        <time>2020-06-18T15:31:36Z</time>
      </trkpt>
      <trkpt lat="49.92818" lon="1.0859">
        <ele>4.46</ele>
        <time>2020-06-18T15:31:40Z</time>
      </trkpt>
      <trkpt lat="49.92814" lon="1.08585">
        <ele>6.39</ele>
        <time>2020-06-18T15:31:45Z</time>
      </trkpt>
      <trkpt lat="49.92808" lon="1.08572">
        <ele>5.42</ele>
        <time>2020-06-18T15:31:55Z</time>
      </trkpt>
      <trkpt lat="49.9281" lon="1.0856">
        <ele>4.94</ele>
        <time>2020-06-18T15:32:06Z</time>
      </trkpt>
      <trkpt lat="49.92794" lon="1.08558">
        <ele>4.94</ele>
        <time>2020-06-18T15:32:24Z</time>
      </trkpt>
      <trkpt lat="49.92792" lon="1.08557">
        <ele>4.94</ele>
        <time>2020-06-18T15:32:25Z</time>
      </trkpt>
      <trkpt lat="49.92772" lon="1.08552">
        <ele>4.94</ele>
        <time>2020-06-18T15:32:44Z</time>
      </trkpt>
      <trkpt lat="49.92753" lon="1.08558">
        <ele>4.94</ele>
        <time>2020-06-18T15:33:01Z</time>
      </trkpt>
      <trkpt lat="49.92742" lon="1.08577">
        <ele>4.94</ele>
        <time>2020-06-18T15:33:17Z</time>
      </trkpt>
      <trkpt lat="49.92731" lon="1.08582">
        <ele>4.94</ele>
        <time>2020-06-18T15:33:33Z</time>
      </trkpt>
      <trkpt lat="49.92729" lon="1.08563">
        <ele>5.91</ele>
        <time>2020-06-18T15:33:47Z</time>
      </trkpt>
      <trkpt lat="49.92731" lon="1.08547">
        <ele>5.91</ele>
        <time>2020-06-18T15:33:57Z</time>
      </trkpt>
      <trkpt lat="49.92732" lon="1.08528">
        <ele>5.91</ele>
        <time>2020-06-18T15:34:09Z</time>
      </trkpt>
      <trkpt lat="49.92733" lon="1.08505">
        <ele>5.91</ele>
        <time>2020-06-18T15:34:21Z</time>
      </trkpt>
      <trkpt lat="49.92738" lon="1.08479">
        <ele>5.91</ele>
        <time>2020-06-18T15:34:36Z</time>
      </trkpt>
      <trkpt lat="49.9274" lon="1.08478">
        <ele>5.91</ele>
        <time>2020-06-18T15:34:38Z</time>
      </trkpt>
      <trkpt lat="49.92746" lon="1.0847">
        <ele>5.91</ele>
        <time>2020-06-18T15:34:45Z</time>
      </trkpt>
      <trkpt lat="49.92747" lon="1.08464">
        <ele>5.91</ele>
        <time>2020-06-18T15:34:49Z</time>
      </trkpt>
      <trkpt lat="49.92746" lon="1.08456">
        <ele>5.91</ele>
        <time>2020-06-18T15:34:54Z</time>
      </trkpt>
      <trkpt lat="49.92747" lon="1.08421">
        <ele>5.91</ele>
        <time>2020-06-18T15:35:15Z</time>
      </trkpt>
      <trkpt lat="49.92745" lon="1.08392">
        <ele>5.91</ele>
        <time>2020-06-18T15:35:33Z</time>
      </trkpt>
      <trkpt lat="49.92743" lon="1.08373">
        <ele>5.91</ele>
        <time>2020-06-18T15:35:47Z</time>
      </trkpt>
      <trkpt lat="49.92743" lon="1.08361">
        <ele>5.42</ele>
        <time>2020-06-18T15:36:03Z</time>
      </trkpt>
      <trkpt lat="49.92745" lon="1.08349">
        <ele>5.42</ele>
        <time>2020-06-18T15:36:18Z</time>
      </trkpt>
      <trkpt lat="49.92739" lon="1.08326">
        <ele>5.42</ele>
        <time>2020-06-18T15:36:33Z</time>
      </trkpt>
      <trkpt lat="49.92736" lon="1.0832">
        <ele>5.42</ele>
        <time>2020-06-18T15:36:38Z</time>
      </trkpt>
      <trkpt lat="49.92733" lon="1.08304">
        <ele>5.42</ele>
        <time>2020-06-18T15:36:56Z</time>
      </trkpt>
      <trkpt lat="49.92732" lon="1.08294">
        <ele>5.42</ele>
        <time>2020-06-18T15:37:09Z</time>
      </trkpt>
      <trkpt lat="49.92729" lon="1.0829">
        <ele>5.42</ele>
        <time>2020-06-18T15:37:16Z</time>
      </trkpt>
      <trkpt lat="49.92713" lon="1.08259">
        <ele>5.42</ele>
        <time>2020-06-18T15:37:36Z</time>
      </trkpt>
      <trkpt lat="49.92705" lon="1.08243">
        <ele>5.42</ele>
        <time>2020-06-18T15:37:52Z</time>
      </trkpt>
      <trkpt lat="49.92693" lon="1.08217">
        <ele>5.42</ele>
        <time>2020-06-18T15:38:11Z</time>
      </trkpt>
      <trkpt lat="49.92683" lon="1.082">
        <ele>5.42</ele>
        <time>2020-06-18T15:38:27Z</time>
      </trkpt>
      <trkpt lat="49.92667" lon="1.08177">
        <ele>5.42</ele>
        <time>2020-06-18T15:38:47Z</time>
      </trkpt>
      <trkpt lat="49.92661" lon="1.08176">
        <ele>5.42</ele>
        <time>2020-06-18T15:38:54Z</time>
      </trkpt>
      <trkpt lat="49.9265" lon="1.08174">
        <ele>5.42</ele>
        <time>2020-06-18T15:39:07Z</time>
      </trkpt>
      <trkpt lat="49.9265" lon="1.08148">
        <ele>5.91</ele>
        <time>2020-06-18T15:39:23Z</time>
      </trkpt>
      <trkpt lat="49.92649" lon="1.08144">
        <ele>5.91</ele>
        <time>2020-06-18T15:39:26Z</time>
      </trkpt>
      <trkpt lat="49.92651" lon="1.08134">
        <ele>6.39</ele>
        <time>2020-06-18T15:39:39Z</time>
      </trkpt>
      <trkpt lat="49.92649" lon="1.0813">
        <ele>6.39</ele>
        <time>2020-06-18T15:39:43Z</time>
      </trkpt>
      <trkpt lat="49.92649" lon="1.08098">
        <ele>5.91</ele>
        <time>2020-06-18T15:39:57Z</time>
      </trkpt>
      <trkpt lat="49.92656" lon="1.08095">
        <ele>5.91</ele>
        <time>2020-06-18T15:40:11Z</time>
      </trkpt>
      <trkpt lat="49.9266" lon="1.08077">
        <ele>5.91</ele>
        <time>2020-06-18T15:40:20Z</time>
      </trkpt>
      <trkpt lat="49.92666" lon="1.08048">
        <ele>5.42</ele>
        <time>2020-06-18T15:40:35Z</time>
      </trkpt>
      <trkpt lat="49.92663" lon="1.08023">
        <ele>5.42</ele>
        <time>2020-06-18T15:40:49Z</time>
      </trkpt>
      <trkpt lat="49.92664" lon="1.08009">
        <ele>3.98</ele>
        <time>2020-06-18T15:40:58Z</time>
      </trkpt>
      <trkpt lat="49.92668" lon="1.07999">
        <ele>3.02</ele>
        <time>2020-06-18T15:41:12Z</time>
      </trkpt>
      <trkpt lat="49.92674" lon="1.07998">
        <ele>3.02</ele>
        <time>2020-06-18T15:41:18Z</time>
      </trkpt>
      <trkpt lat="49.92696" lon="1.07999">
        <ele>3.02</ele>
        <time>2020-06-18T15:41:38Z</time>
      </trkpt>
      <trkpt lat="49.92706" lon="1.07994">
        <ele>3.02</ele>
        <time>2020-06-18T15:41:49Z</time>
      </trkpt>
      <trkpt lat="49.92722" lon="1.07981">
        <ele>3.02</ele>
        <time>2020-06-18T15:42:04Z</time>
      </trkpt>
      <trkpt lat="49.92735" lon="1.07974">
        <ele>2.54</ele>
        <time>2020-06-18T15:42:18Z</time>
      </trkpt>
      <trkpt lat="49.92742" lon="1.07969">
        <ele>2.54</ele>
        <time>2020-06-18T15:42:29Z</time>
      </trkpt>
      <trkpt lat="49.92754" lon="1.07974">
        <ele>2.54</ele>
        <time>2020-06-18T15:42:43Z</time>
      </trkpt>
      <trkpt lat="49.92763" lon="1.0798">
        <ele>2.54</ele>
        <time>2020-06-18T15:42:56Z</time>
      </trkpt>
      <trkpt lat="49.92767" lon="1.07983">
        <ele>2.06</ele>
        <time>2020-06-18T15:43:16Z</time>
      </trkpt>
      <trkpt lat="49.92776" lon="1.08">
        <ele>2.06</ele>
        <time>2020-06-18T15:43:32Z</time>
      </trkpt>
      <trkpt lat="49.92781" lon="1.08014">
        <ele>2.06</ele>
        <time>2020-06-18T15:43:46Z</time>
      </trkpt>
      <trkpt lat="49.92789" lon="1.08021">
        <ele>2.06</ele>
        <time>2020-06-18T15:44:01Z</time>
      </trkpt>
      <trkpt lat="49.92791" lon="1.0803">
        <ele>2.06</ele>
        <time>2020-06-18T15:44:06Z</time>
      </trkpt>
      <trkpt lat="49.92799" lon="1.08047">
        <ele>2.06</ele>
        <time>2020-06-18T15:44:21Z</time>
      </trkpt>
      <trkpt lat="49.92812" lon="1.08074">
        <ele>2.06</ele>
        <time>2020-06-18T15:44:40Z</time>
      </trkpt>
      <trkpt lat="49.92823" lon="1.08092">
        <ele>2.06</ele>
        <time>2020-06-18T15:44:55Z</time>
      </trkpt>
      <trkpt lat="49.92836" lon="1.08119">
        <ele>2.06</ele>
        <time>2020-06-18T15:45:15Z</time>
      </trkpt>
      <trkpt lat="49.92842" lon="1.08125">
        <ele>2.06</ele>
        <time>2020-06-18T15:45:31Z</time>
      </trkpt>
      <trkpt lat="49.92841" lon="1.08127">
        <ele>2.06</ele>
        <time>2020-06-18T15:46:05Z</time>
      </trkpt>
      <trkpt lat="49.92839" lon="1.0813">
        <ele>2.06</ele>
        <time>2020-06-18T15:46:26Z</time>
      </trkpt>
      <trkpt lat="49.9284" lon="1.08131">
        <ele>2.06</ele>
        <time>2020-06-18T15:46:59Z</time>
      </trkpt>
      <trkpt lat="49.92836" lon="1.08131">
        <ele>2.06</ele>
        <time>2020-06-18T15:47:32Z</time>
      </trkpt>
      <trkpt lat="49.92842" lon="1.08135">
        <ele>2.06</ele>
        <time>2020-06-18T15:47:56Z</time>
      </trkpt>
      <trkpt lat="49.92847" lon="1.08147">
        <ele>2.06</ele>
        <time>2020-06-18T15:48:11Z</time>
      </trkpt>
      <trkpt lat="49.92851" lon="1.08146">
        <ele>2.06</ele>
        <time>2020-06-18T15:48:38Z</time>
      </trkpt>
      <trkpt lat="49.92851" lon="1.08143">
        <ele>2.06</ele>
        <time>2020-06-18T15:48:53Z</time>
      </trkpt>
      <trkpt lat="49.92852" lon="1.08141">
        <ele>2.06</ele>
        <time>2020-06-18T15:49:15Z</time>
      </trkpt>
      <trkpt lat="49.92851" lon="1.08144">
        <ele>2.06</ele>
        <time>2020-06-18T15:49:36Z</time>
      </trkpt>
      <trkpt lat="49.92848" lon="1.08149">
        <ele>2.06</ele>
        <time>2020-06-18T15:49:48Z</time>
      </trkpt>
      <trkpt lat="49.92856" lon="1.08164">
        <ele>2.06</ele>
        <time>2020-06-18T15:50:03Z</time>
      </trkpt>
      <trkpt lat="49.9286" lon="1.0817">
        <ele>2.06</ele>
        <time>2020-06-18T15:50:10Z</time>
      </trkpt>
      <trkpt lat="49.9287" lon="1.08192">
        <ele>2.06</ele>
        <time>2020-06-18T15:50:26Z</time>
      </trkpt>
      <trkpt lat="49.92878" lon="1.0821">
        <ele>1.58</ele>
        <time>2020-06-18T15:50:41Z</time>
      </trkpt>
      <trkpt lat="49.92882" lon="1.08222">
        <ele>1.58</ele>
        <time>2020-06-18T15:50:49Z</time>
      </trkpt>
      <trkpt lat="49.92887" lon="1.08229">
        <ele>1.58</ele>
        <time>2020-06-18T15:50:56Z</time>
      </trkpt>
      <trkpt lat="49.92892" lon="1.08237">
        <ele>1.58</ele>
        <time>2020-06-18T15:51:10Z</time>
      </trkpt>
      <trkpt lat="49.92897" lon="1.08249">
        <ele>1.58</ele>
        <time>2020-06-18T15:51:18Z</time>
      </trkpt>
      <trkpt lat="49.92904" lon="1.08269">
        <ele>1.58</ele>
        <time>2020-06-18T15:51:32Z</time>
      </trkpt>
      <trkpt lat="49.92911" lon="1.08289">
        <ele>1.1</ele>
        <time>2020-06-18T15:51:46Z</time>
      </trkpt>
      <trkpt lat="49.92915" lon="1.08306">
        <ele>1.1</ele>
        <time>2020-06-18T15:52:02Z</time>
      </trkpt>
      <trkpt lat="49.92918" lon="1.08322">
        <ele>1.1</ele>
        <time>2020-06-18T15:52:17Z</time>
      </trkpt>
      <trkpt lat="49.9292" lon="1.08342">
        <ele>1.1</ele>
        <time>2020-06-18T15:52:33Z</time>
      </trkpt>
      <trkpt lat="49.92924" lon="1.08365">
        <ele>1.1</ele>
        <time>2020-06-18T15:52:52Z</time>
      </trkpt>
      <trkpt lat="49.92927" lon="1.08371">
        <ele>1.1</ele>
        <time>2020-06-18T15:53:03Z</time>
      </trkpt>
      <trkpt lat="49.92928" lon="1.08373">
        <ele>1.1</ele>
        <time>2020-06-18T15:53:06Z</time>
      </trkpt>
      <trkpt lat="49.9293" lon="1.08371">
        <ele>1.1</ele>
        <time>2020-06-18T15:53:08Z</time>
      </trkpt>
      <trkpt lat="49.92932" lon="1.08364">
        <ele>1.1</ele>
        <time>2020-06-18T15:53:17Z</time>
      </trkpt>
      <trkpt lat="49.92931" lon="1.0837">
        <ele>1.1</ele>
        <time>2020-06-18T15:53:20Z</time>
      </trkpt>
      <trkpt lat="49.92932" lon="1.08381">
        <ele>1.1</ele>
        <time>2020-06-18T15:53:29Z</time>
      </trkpt>
      <trkpt lat="49.92943" lon="1.08399">
        <ele>0.62</ele>
        <time>2020-06-18T15:53:45Z</time>
      </trkpt>
      <trkpt lat="49.92951" lon="1.08411">
        <ele>0.62</ele>
        <time>2020-06-18T15:53:59Z</time>
      </trkpt>
      <trkpt lat="49.92965" lon="1.08425">
        <ele>0.62</ele>
        <time>2020-06-18T15:54:16Z</time>
      </trkpt>
      <trkpt lat="49.92979" lon="1.08441">
        <ele>0.62</ele>
        <time>2020-06-18T15:54:31Z</time>
      </trkpt>
      <trkpt lat="49.92983" lon="1.08448">
        <ele>0.62</ele>
        <time>2020-06-18T15:54:37Z</time>
      </trkpt>
      <trkpt lat="49.92996" lon="1.08477">
        <ele>1.58</ele>
        <time>2020-06-18T15:54:56Z</time>
      </trkpt>
      <trkpt lat="49.92997" lon="1.08479">
        <ele>1.58</ele>
        <time>2020-06-18T15:54:58Z</time>
      </trkpt>
      <trkpt lat="49.93" lon="1.08485">
        <ele>1.58</ele>
        <time>2020-06-18T15:55:03Z</time>
      </trkpt>
      <trkpt lat="49.93009" lon="1.08504">
        <ele>1.58</ele>
        <time>2020-06-18T15:55:16Z</time>
      </trkpt>
      <trkpt lat="49.93015" lon="1.08509">
        <ele>1.58</ele>
        <time>2020-06-18T15:55:28Z</time>
      </trkpt>
      <trkpt lat="49.93018" lon="1.08511">
        <ele>1.58</ele>
        <time>2020-06-18T15:55:30Z</time>
      </trkpt>
      <trkpt lat="49.93033" lon="1.0851">
        <ele>1.58</ele>
        <time>2020-06-18T15:55:45Z</time>
      </trkpt>
      <trkpt lat="49.93036" lon="1.0851">
        <ele>1.58</ele>
        <time>2020-06-18T15:56:15Z</time>
      </trkpt>
      <trkpt lat="49.93051" lon="1.08516">
        <ele>1.58</ele>
        <time>2020-06-18T15:56:30Z</time>
      </trkpt>
      <trkpt lat="49.93075" lon="1.08518">
        <ele>1.58</ele>
        <time>2020-06-18T15:56:51Z</time>
      </trkpt>
      <trkpt lat="49.93092" lon="1.08515">
        <ele>1.58</ele>
        <time>2020-06-18T15:57:07Z</time>
      </trkpt>
      <trkpt lat="49.93095" lon="1.08515">
        <ele>1.58</ele>
        <time>2020-06-18T15:57:10Z</time>
      </trkpt>
      <trkpt lat="49.9311" lon="1.08513">
        <ele>1.58</ele>
        <time>2020-06-18T15:57:26Z</time>
      </trkpt>
      <trkpt lat="49.93129" lon="1.08512">
        <ele>1.58</ele>
        <time>2020-06-18T15:57:42Z</time>
      </trkpt>
      <trkpt lat="49.93143" lon="1.08511">
        <ele>1.58</ele>
        <time>2020-06-18T15:57:57Z</time>
      </trkpt>
      <trkpt lat="49.93161" lon="1.08514">
        <ele>1.58</ele>
        <time>2020-06-18T15:58:14Z</time>
      </trkpt>
      <trkpt lat="49.93181" lon="1.08511">
        <ele>1.58</ele>
        <time>2020-06-18T15:58:30Z</time>
      </trkpt>
      <trkpt lat="49.93192" lon="1.08508">
        <ele>1.58</ele>
        <time>2020-06-18T15:58:40Z</time>
      </trkpt>
      <trkpt lat="49.93213" lon="1.08493">
        <ele>1.58</ele>
        <time>2020-06-18T15:59:00Z</time>
      </trkpt>
      <trkpt lat="49.93227" lon="1.08481">
        <ele>1.58</ele>
        <time>2020-06-18T15:59:16Z</time>
      </trkpt>
      <trkpt lat="49.93278" lon="1.08442">
        <ele>3.3</ele>
      </trkpt>
      <trkpt lat="49.93318" lon="1.08397">
        <ele>4.9</ele>
      </trkpt>
      <trkpt lat="49.93337" lon="1.0839">
        <ele>9</ele>
      </trkpt>
      <trkpt lat="49.93368" lon="1.08358">
        <ele>7.6</ele>
      </trkpt>
      <trkpt lat="49.93404" lon="1.08318">
        <ele>3.3</ele>
      </trkpt>
      <trkpt lat="49.93427" lon="1.08292">
        <ele>2</ele>
      </trkpt>
      <trkpt lat="49.93434" lon="1.08284">
        <ele>2</ele>
      </trkpt>
      <trkpt lat="49.93507" lon="1.08287">
      </trkpt>
      <trkpt lat="49.9358" lon="1.08284">
        <ele>8</ele>
      </trkpt>
      <trkpt lat="49.93767" lon="1.08278">
        <ele>8</ele>
      </trkpt>
      <trkpt lat="49.93776" lon="1.0827">
        <ele>8.3</ele>
      </trkpt>
      <trkpt lat="49.93777" lon="1.08257">
        <ele>8.7</ele>
      </trkpt>
      <trkpt lat="49.93774" lon="1.0825">
        <ele>9</ele>
      </trkpt>
      <trkpt lat="49.93583" lon="1.08256">
        <ele>8.8</ele>
      </trkpt>
      <trkpt lat="49.93581" lon="1.08271">
        <ele>8.2</ele>
      </trkpt>
      <trkpt lat="49.93565" lon="1.08275">
        <ele>8.1</ele>
      </trkpt>
      <trkpt lat="49.93555" lon="1.08279">
      </trkpt>
      <trkpt lat="49.93443" lon="1.0828">
        <ele>2</ele>
      </trkpt>
      <trkpt lat="49.93431" lon="1.0828">
        <ele>2</ele>
      </trkpt>
      <trkpt lat="49.93421" lon="1.08295">
        <ele>2</ele>
      </trkpt>
      <trkpt lat="49.9339" lon="1.08329">
        <ele>4.5</ele>
      </trkpt>
      <trkpt lat="49.9335" lon="1.0837">
        <ele>8.6</ele>
      </trkpt>
      <trkpt lat="49.93335" lon="1.08373">
        <ele>9</ele>
      </trkpt>
      <trkpt lat="49.93326" lon="1.08368">
        <ele>5</ele>
      </trkpt>
      <trkpt lat="49.9332" lon="1.08376">
        <ele>5</ele>
      </trkpt>
      <trkpt lat="49.93316" lon="1.08382">
        <ele>5</ele>
      </trkpt>
      <trkpt lat="49.93303" lon="1.08366">
        <ele>5.1</ele>
      </trkpt>
      <trkpt lat="49.93287" lon="1.08349">
        <ele>2.54</ele>
        <time>2020-06-18T16:01:10Z</time>
      </trkpt>
      <trkpt lat="49.93269" lon="1.08327">
        <ele>1.1</ele>
        <time>2020-06-18T16:01:30Z</time>
      </trkpt>
      <trkpt lat="49.93255" lon="1.08303">
        <ele>1.1</ele>
        <time>2020-06-18T16:01:48Z</time>
      </trkpt>
      <trkpt lat="49.93255" lon="1.08299">
        <ele>1.1</ele>
        <time>2020-06-18T16:01:52Z</time>
      </trkpt>
      <trkpt lat="49.93253" lon="1.08293">
        <ele>1.1</ele>
        <time>2020-06-18T16:01:56Z</time>
      </trkpt>
      <trkpt lat="49.93237" lon="1.08262">
        <ele>1.1</ele>
        <time>2020-06-18T16:02:18Z</time>
      </trkpt>
      <trkpt lat="49.93223" lon="1.08235">
        <ele>1.1</ele>
        <time>2020-06-18T16:02:39Z</time>
      </trkpt>
      <trkpt lat="49.93206" lon="1.08206">
        <ele>0.62</ele>
        <time>2020-06-18T16:03:01Z</time>
      </trkpt>
      <trkpt lat="49.93187" lon="1.08173">
        <ele>0.62</ele>
        <time>2020-06-18T16:03:25Z</time>
      </trkpt>
      <trkpt lat="49.93166" lon="1.08138">
        <ele>0.62</ele>
        <time>2020-06-18T16:03:51Z</time>
      </trkpt>
      <trkpt lat="49.93147" lon="1.08104">
        <ele>0.62</ele>
        <time>2020-06-18T16:04:15Z</time>
      </trkpt>
      <trkpt lat="49.93135" lon="1.08078">
        <ele>0.62</ele>
        <time>2020-06-18T16:04:33Z</time>
      </trkpt>
      <trkpt lat="49.93119" lon="1.08055">
        <ele>0.62</ele>
        <time>2020-06-18T16:04:52Z</time>
      </trkpt>
      <trkpt lat="49.9312" lon="1.08054">
        <ele>0.14</ele>
        <time>2020-06-18T16:05:06Z</time>
      </trkpt>
      <trkpt lat="49.93121" lon="1.08054">
        <ele>0.14</ele>
        <time>2020-06-18T16:05:36Z</time>
      </trkpt>
      <trkpt lat="49.93122" lon="1.08051">
        <ele>0.14</ele>
        <time>2020-06-18T16:05:44Z</time>
      </trkpt>
      <trkpt lat="49.93118" lon="1.08045">
        <ele>0.14</ele>
        <time>2020-06-18T16:05:49Z</time>
      </trkpt>
      <trkpt lat="49.93106" lon="1.08026">
        <ele>0.14</ele>
        <time>2020-06-18T16:06:05Z</time>
      </trkpt>
      <trkpt lat="49.93098" lon="1.08009">
        <ele>0.14</ele>
        <time>2020-06-18T16:06:18Z</time>
      </trkpt>
      <trkpt lat="49.93084" lon="1.07989">
        <ele>0.14</ele>
        <time>2020-06-18T16:06:33Z</time>
      </trkpt>
      <trkpt lat="49.93069" lon="1.07961">
        <ele>0.14</ele>
        <time>2020-06-18T16:06:53Z</time>
      </trkpt>
      <trkpt lat="49.93056" lon="1.07936">
        <ele>0.14</ele>
        <time>2020-06-18T16:07:11Z</time>
      </trkpt>
      <trkpt lat="49.93042" lon="1.0791">
        <ele>0.14</ele>
        <time>2020-06-18T16:07:29Z</time>
      </trkpt>
      <trkpt lat="49.93029" lon="1.07888">
        <ele>0.14</ele>
        <time>2020-06-18T16:07:46Z</time>
      </trkpt>
      <trkpt lat="49.93017" lon="1.07862">
        <ele>0.14</ele>
        <time>2020-06-18T16:08:03Z</time>
      </trkpt>
      <trkpt lat="49.93002" lon="1.07835">
        <ele>0.14</ele>
        <time>2020-06-18T16:08:22Z</time>
      </trkpt>
      <trkpt lat="49.92989" lon="1.07811">
        <ele>0.14</ele>
        <time>2020-06-18T16:08:39Z</time>
      </trkpt>
      <trkpt lat="49.92977" lon="1.07789">
        <ele>0.62</ele>
        <time>2020-06-18T16:08:55Z</time>
      </trkpt>
      <trkpt lat="49.92966" lon="1.07762">
        <ele>0.62</ele>
        <time>2020-06-18T16:09:13Z</time>
      </trkpt>
      <trkpt lat="49.92954" lon="1.07737">
        <ele>0.62</ele>
        <time>2020-06-18T16:09:32Z</time>
      </trkpt>
      <trkpt lat="49.92946" lon="1.07718">
        <ele>1.58</ele>
        <time>2020-06-18T16:09:46Z</time>
      </trkpt>
      <trkpt lat="49.92936" lon="1.07695">
        <ele>1.58</ele>
        <time>2020-06-18T16:10:01Z</time>
      </trkpt>
      <trkpt lat="49.92922" lon="1.07668">
        <ele>1.58</ele>
        <time>2020-06-18T16:10:17Z</time>
      </trkpt>
      <trkpt lat="49.92914" lon="1.07651">
        <ele>1.58</ele>
        <time>2020-06-18T16:10:29Z</time>
      </trkpt>
      <trkpt lat="49.92904" lon="1.07625">
        <ele>1.58</ele>
        <time>2020-06-18T16:10:46Z</time>
      </trkpt>
      <trkpt lat="49.92893" lon="1.07598">
        <ele>1.58</ele>
        <time>2020-06-18T16:11:04Z</time>
      </trkpt>
      <trkpt lat="49.92883" lon="1.07577">
        <ele>2.06</ele>
        <time>2020-06-18T16:11:18Z</time>
      </trkpt>
      <trkpt lat="49.92875" lon="1.07555">
        <ele>2.06</ele>
        <time>2020-06-18T16:11:32Z</time>
      </trkpt>
      <trkpt lat="49.92867" lon="1.07537">
        <ele>2.06</ele>
        <time>2020-06-18T16:11:44Z</time>
      </trkpt>
      <trkpt lat="49.92853" lon="1.07505">
        <ele>2.06</ele>
        <time>2020-06-18T16:12:04Z</time>
      </trkpt>
      <trkpt lat="49.92841" lon="1.07478">
        <ele>2.06</ele>
        <time>2020-06-18T16:12:22Z</time>
      </trkpt>
      <trkpt lat="49.92834" lon="1.07462">
        <ele>2.54</ele>
        <time>2020-06-18T16:12:33Z</time>
      </trkpt>
      <trkpt lat="49.92821" lon="1.07435">
        <ele>2.54</ele>
        <time>2020-06-18T16:12:51Z</time>
      </trkpt>
      <trkpt lat="49.92808" lon="1.07408">
        <ele>2.54</ele>
        <time>2020-06-18T16:13:08Z</time>
      </trkpt>
      <trkpt lat="49.928" lon="1.0739">
        <ele>2.54</ele>
        <time>2020-06-18T16:13:21Z</time>
      </trkpt>
      <trkpt lat="49.92794" lon="1.07367">
        <ele>3.02</ele>
        <time>2020-06-18T16:13:36Z</time>
      </trkpt>
      <trkpt lat="49.92783" lon="1.0734">
        <ele>3.02</ele>
        <time>2020-06-18T16:13:52Z</time>
      </trkpt>
      <trkpt lat="49.92775" lon="1.07318">
        <ele>3.5</ele>
        <time>2020-06-18T16:14:05Z</time>
      </trkpt>
      <trkpt lat="49.92772" lon="1.0731">
        <ele>3.98</ele>
        <time>2020-06-18T16:14:10Z</time>
      </trkpt>
      <trkpt lat="49.92762" lon="1.07283">
        <ele>4.94</ele>
        <time>2020-06-18T16:14:27Z</time>
      </trkpt>
      <trkpt lat="49.92756" lon="1.07263">
        <ele>4.94</ele>
        <time>2020-06-18T16:14:42Z</time>
      </trkpt>
      <trkpt lat="49.92747" lon="1.07237">
        <ele>5.42</ele>
        <time>2020-06-18T16:14:57Z</time>
      </trkpt>
      <trkpt lat="49.92737" lon="1.07208">
        <ele>5.42</ele>
        <time>2020-06-18T16:15:15Z</time>
      </trkpt>
      <trkpt lat="49.92727" lon="1.07181">
        <ele>5.42</ele>
        <time>2020-06-18T16:15:32Z</time>
      </trkpt>
      <trkpt lat="49.92718" lon="1.07156">
        <ele>5.42</ele>
        <time>2020-06-18T16:15:48Z</time>
      </trkpt>
      <trkpt lat="49.9271" lon="1.0713">
        <ele>5.91</ele>
        <time>2020-06-18T16:16:05Z</time>
      </trkpt>
      <trkpt lat="49.92702" lon="1.07109">
        <ele>5.91</ele>
        <time>2020-06-18T16:16:19Z</time>
      </trkpt>
      <trkpt lat="49.92696" lon="1.07092">
        <ele>5.91</ele>
        <time>2020-06-18T16:16:30Z</time>
      </trkpt>
      <trkpt lat="49.92684" lon="1.07064">
        <ele>5.91</ele>
        <time>2020-06-18T16:16:47Z</time>
      </trkpt>
      <trkpt lat="49.92671" lon="1.07037">
        <ele>6.39</ele>
        <time>2020-06-18T16:17:05Z</time>
      </trkpt>
      <trkpt lat="49.92661" lon="1.0702">
        <ele>6.39</ele>
        <time>2020-06-18T16:17:19Z</time>
      </trkpt>
      <trkpt lat="49.92643" lon="1.07009">
        <ele>6.39</ele>
        <time>2020-06-18T16:17:34Z</time>
      </trkpt>
      <trkpt lat="49.92635" lon="1.07006">
        <ele>6.39</ele>
        <time>2020-06-18T16:17:41Z</time>
      </trkpt>
      <trkpt lat="49.92627" lon="1.07007">
        <ele>6.39</ele>
        <time>2020-06-18T16:17:48Z</time>
      </trkpt>
      <trkpt lat="49.92625" lon="1.07008">
        <ele>6.39</ele>
        <time>2020-06-18T16:18:04Z</time>
      </trkpt>
      <trkpt lat="49.92625" lon="1.07007">
        <ele>6.39</ele>
        <time>2020-06-18T16:18:24Z</time>
      </trkpt>
      <trkpt lat="49.92625" lon="1.07009">
        <ele>6.39</ele>
        <time>2020-06-18T16:18:47Z</time>
      </trkpt>
      <trkpt lat="49.92625" lon="1.07008">
        <ele>6.39</ele>
        <time>2020-06-18T16:19:02Z</time>
      </trkpt>
      <trkpt lat="49.92625" lon="1.07011">
        <ele>6.39</ele>
        <time>2020-06-18T16:19:18Z</time>
      </trkpt>
    </trkseg>
  </trk>
</gpx>